<?xml version="1.0" encoding="UTF-8" standalone="no" ?>
<gpx xmlns="http://www.topografix.com/GPX/1/1" xmlns:xsi="http://www.w3.org/2001/XMLSchema-instance" xsi:schemaLocation="http://www.topografix.com/GPX/1/1 http://www.topografix.com/GPX/1/1/gpx.xsd" version="1.1" creator="VisuGPX - https://www.visugpx.com">
  <metadata>
    <name>121124ROBChataigniersBesseMalaga</name>
    <desc><![CDATA[Sortie de 31 km avec un dénivelé de 600 m. Ciel très menaçant, mais on a réussit à passer entre les gouttes.]]></desc>
  </metadata>
  <trk>
    <name><![CDATA[121124ROBChataigniersBesseMalaga]]></name>
    <cmt><![CDATA[HR decrease: 124/86/38]]></cmt>
    <trkseg>
      <trkpt lat="43.40408" lon="6.06504">
        <ele>232.39999389648</ele>
        <time>2012-11-24T13:02:46Z</time>
      </trkpt>
      <trkpt lat="43.40405" lon="6.06493">
        <ele>232.80000305176</ele>
        <time>2012-11-24T13:02:57Z</time>
      </trkpt>
      <trkpt lat="43.4039" lon="6.06492">
        <ele>232.80000305176</ele>
        <time>2012-11-24T13:03:04Z</time>
      </trkpt>
      <trkpt lat="43.40358" lon="6.06516">
        <ele>232.80000305176</ele>
        <time>2012-11-24T13:03:16Z</time>
      </trkpt>
      <trkpt lat="43.40304" lon="6.06546">
        <ele>232.80000305176</ele>
        <time>2012-11-24T13:03:30Z</time>
      </trkpt>
      <trkpt lat="43.40277" lon="6.0655">
        <ele>232.80000305176</ele>
        <time>2012-11-24T13:03:37Z</time>
      </trkpt>
      <trkpt lat="43.40255" lon="6.06561">
        <ele>232.80000305176</ele>
        <time>2012-11-24T13:03:43Z</time>
      </trkpt>
      <trkpt lat="43.40236" lon="6.0658">
        <ele>232.80000305176</ele>
        <time>2012-11-24T13:03:49Z</time>
      </trkpt>
      <trkpt lat="43.4023" lon="6.06603">
        <ele>232.80000305176</ele>
        <time>2012-11-24T13:03:53Z</time>
      </trkpt>
      <trkpt lat="43.40211" lon="6.06633">
        <ele>232.80000305176</ele>
        <time>2012-11-24T13:03:59Z</time>
      </trkpt>
      <trkpt lat="43.40187" lon="6.06689">
        <ele>232.80000305176</ele>
        <time>2012-11-24T13:04:10Z</time>
      </trkpt>
      <trkpt lat="43.40162" lon="6.06744">
        <ele>234</ele>
        <time>2012-11-24T13:04:22Z</time>
      </trkpt>
      <trkpt lat="43.40152" lon="6.06766">
        <ele>234.80000305176</ele>
        <time>2012-11-24T13:04:27Z</time>
      </trkpt>
      <trkpt lat="43.40121" lon="6.06857">
        <ele>238.39999389648</ele>
        <time>2012-11-24T13:04:48Z</time>
      </trkpt>
      <trkpt lat="43.40112" lon="6.06883">
        <ele>238.80000305176</ele>
        <time>2012-11-24T13:04:54Z</time>
      </trkpt>
      <trkpt lat="43.40109" lon="6.06914">
        <ele>238.80000305176</ele>
        <time>2012-11-24T13:04:59Z</time>
      </trkpt>
      <trkpt lat="43.40121" lon="6.06991">
        <ele>238.80000305176</ele>
        <time>2012-11-24T13:05:10Z</time>
      </trkpt>
      <trkpt lat="43.40121" lon="6.07084">
        <ele>238.80000305176</ele>
        <time>2012-11-24T13:05:25Z</time>
      </trkpt>
      <trkpt lat="43.40145" lon="6.07279">
        <ele>238.80000305176</ele>
        <time>2012-11-24T13:05:59Z</time>
      </trkpt>
      <trkpt lat="43.40139" lon="6.07369">
        <ele>238.80000305176</ele>
        <time>2012-11-24T13:06:15Z</time>
      </trkpt>
      <trkpt lat="43.40139" lon="6.07399">
        <ele>238.80000305176</ele>
        <time>2012-11-24T13:06:21Z</time>
      </trkpt>
      <trkpt lat="43.40144" lon="6.07425">
        <ele>238.80000305176</ele>
        <time>2012-11-24T13:06:26Z</time>
      </trkpt>
      <trkpt lat="43.40145" lon="6.07441">
        <ele>238.80000305176</ele>
        <time>2012-11-24T13:06:29Z</time>
      </trkpt>
      <trkpt lat="43.40143" lon="6.07472">
        <ele>239.19999694824</ele>
        <time>2012-11-24T13:06:35Z</time>
      </trkpt>
      <trkpt lat="43.40132" lon="6.07524">
        <ele>243</ele>
        <time>2012-11-24T13:06:46Z</time>
      </trkpt>
      <trkpt lat="43.40092" lon="6.07601">
        <ele>243.39999389648</ele>
        <time>2012-11-24T13:07:04Z</time>
      </trkpt>
      <trkpt lat="43.4009" lon="6.0761">
        <ele>244.19999694824</ele>
        <time>2012-11-24T13:07:06Z</time>
      </trkpt>
      <trkpt lat="43.40089" lon="6.07641">
        <ele>245.39999389648</ele>
        <time>2012-11-24T13:07:13Z</time>
      </trkpt>
      <trkpt lat="43.40083" lon="6.07666">
        <ele>247.39999389648</ele>
        <time>2012-11-24T13:07:20Z</time>
      </trkpt>
      <trkpt lat="43.40068" lon="6.07696">
        <ele>249.39999389648</ele>
        <time>2012-11-24T13:07:29Z</time>
      </trkpt>
      <trkpt lat="43.40063" lon="6.07702">
        <ele>250.19999694824</ele>
        <time>2012-11-24T13:07:31Z</time>
      </trkpt>
      <trkpt lat="43.40051" lon="6.07717">
        <ele>251</ele>
        <time>2012-11-24T13:07:36Z</time>
      </trkpt>
      <trkpt lat="43.40035" lon="6.07744">
        <ele>251</ele>
        <time>2012-11-24T13:07:43Z</time>
      </trkpt>
      <trkpt lat="43.40001" lon="6.07857">
        <ele>253.19999694824</ele>
        <time>2012-11-24T13:08:09Z</time>
      </trkpt>
      <trkpt lat="43.39983" lon="6.07937">
        <ele>255.19999694824</ele>
        <time>2012-11-24T13:08:28Z</time>
      </trkpt>
      <trkpt lat="43.3997" lon="6.07968">
        <ele>256.60000610352</ele>
        <time>2012-11-24T13:08:38Z</time>
      </trkpt>
      <trkpt lat="43.39936" lon="6.07993">
        <ele>259</ele>
        <time>2012-11-24T13:08:52Z</time>
      </trkpt>
      <trkpt lat="43.39915" lon="6.0801">
        <ele>259.39999389648</ele>
        <time>2012-11-24T13:08:59Z</time>
      </trkpt>
      <trkpt lat="43.399" lon="6.08031">
        <ele>259.39999389648</ele>
        <time>2012-11-24T13:09:04Z</time>
      </trkpt>
      <trkpt lat="43.39892" lon="6.08034">
        <ele>259.39999389648</ele>
        <time>2012-11-24T13:09:06Z</time>
      </trkpt>
      <trkpt lat="43.39881" lon="6.08035">
        <ele>259.39999389648</ele>
        <time>2012-11-24T13:09:08Z</time>
      </trkpt>
      <trkpt lat="43.39872" lon="6.08032">
        <ele>259.39999389648</ele>
        <time>2012-11-24T13:09:10Z</time>
      </trkpt>
      <trkpt lat="43.39824" lon="6.07997">
        <ele>258.60000610352</ele>
        <time>2012-11-24T13:09:22Z</time>
      </trkpt>
      <trkpt lat="43.39782" lon="6.07979">
        <ele>257.39999389648</ele>
        <time>2012-11-24T13:09:33Z</time>
      </trkpt>
      <trkpt lat="43.39772" lon="6.07973">
        <ele>257.79998779297</ele>
        <time>2012-11-24T13:09:37Z</time>
      </trkpt>
      <trkpt lat="43.39741" lon="6.07956">
        <ele>259.79998779297</ele>
        <time>2012-11-24T13:09:49Z</time>
      </trkpt>
      <trkpt lat="43.3972" lon="6.07934">
        <ele>261.60000610352</ele>
        <time>2012-11-24T13:09:59Z</time>
      </trkpt>
      <trkpt lat="43.39696" lon="6.07905">
        <ele>265.20001220703</ele>
        <time>2012-11-24T13:10:13Z</time>
      </trkpt>
      <trkpt lat="43.39679" lon="6.07893">
        <ele>267.20001220703</ele>
        <time>2012-11-24T13:10:21Z</time>
      </trkpt>
      <trkpt lat="43.39665" lon="6.07889">
        <ele>267.60000610352</ele>
        <time>2012-11-24T13:10:27Z</time>
      </trkpt>
      <trkpt lat="43.39656" lon="6.07888">
        <ele>268</ele>
        <time>2012-11-24T13:10:31Z</time>
      </trkpt>
      <trkpt lat="43.39632" lon="6.07896">
        <ele>269.79998779297</ele>
        <time>2012-11-24T13:10:40Z</time>
      </trkpt>
      <trkpt lat="43.39601" lon="6.07912">
        <ele>270.60000610352</ele>
        <time>2012-11-24T13:10:53Z</time>
      </trkpt>
      <trkpt lat="43.39594" lon="6.07913">
        <ele>271.79998779297</ele>
        <time>2012-11-24T13:10:56Z</time>
      </trkpt>
      <trkpt lat="43.39586" lon="6.07913">
        <ele>273</ele>
        <time>2012-11-24T13:11:01Z</time>
      </trkpt>
      <trkpt lat="43.39571" lon="6.07936">
        <ele>274.60000610352</ele>
        <time>2012-11-24T13:11:13Z</time>
      </trkpt>
      <trkpt lat="43.39555" lon="6.07938">
        <ele>278</ele>
        <time>2012-11-24T13:11:22Z</time>
      </trkpt>
      <trkpt lat="43.39522" lon="6.07954">
        <ele>281.39999389648</ele>
        <time>2012-11-24T13:11:43Z</time>
      </trkpt>
      <trkpt lat="43.39497" lon="6.07961">
        <ele>282.60000610352</ele>
        <time>2012-11-24T13:11:58Z</time>
      </trkpt>
      <trkpt lat="43.39466" lon="6.07904">
        <ele>286.20001220703</ele>
        <time>2012-11-24T13:12:29Z</time>
      </trkpt>
      <trkpt lat="43.3946" lon="6.07895">
        <ele>286.20001220703</ele>
        <time>2012-11-24T13:12:36Z</time>
      </trkpt>
      <trkpt lat="43.39442" lon="6.07898">
        <ele>290</ele>
        <time>2012-11-24T13:12:50Z</time>
      </trkpt>
      <trkpt lat="43.39441" lon="6.07903">
        <ele>290.39999389648</ele>
        <time>2012-11-24T13:12:55Z</time>
      </trkpt>
      <trkpt lat="43.39441" lon="6.07904">
        <ele>290.39999389648</ele>
        <time>2012-11-24T13:13:06Z</time>
      </trkpt>
      <trkpt lat="43.39438" lon="6.07924">
        <ele>290.39999389648</ele>
        <time>2012-11-24T13:13:43Z</time>
      </trkpt>
      <trkpt lat="43.39426" lon="6.07957">
        <ele>290.39999389648</ele>
        <time>2012-11-24T13:13:51Z</time>
      </trkpt>
      <trkpt lat="43.3941" lon="6.07966">
        <ele>290.39999389648</ele>
        <time>2012-11-24T13:13:57Z</time>
      </trkpt>
      <trkpt lat="43.39397" lon="6.07968">
        <ele>290.39999389648</ele>
        <time>2012-11-24T13:14:01Z</time>
      </trkpt>
      <trkpt lat="43.39387" lon="6.07965">
        <ele>291.79998779297</ele>
        <time>2012-11-24T13:14:06Z</time>
      </trkpt>
      <trkpt lat="43.39385" lon="6.07965">
        <ele>292.60000610352</ele>
        <time>2012-11-24T13:14:07Z</time>
      </trkpt>
      <trkpt lat="43.3938" lon="6.07969">
        <ele>292.60000610352</ele>
        <time>2012-11-24T13:14:25Z</time>
      </trkpt>
      <trkpt lat="43.39376" lon="6.07971">
        <ele>292.60000610352</ele>
        <time>2012-11-24T13:14:30Z</time>
      </trkpt>
      <trkpt lat="43.3936" lon="6.08011">
        <ele>292.60000610352</ele>
        <time>2012-11-24T13:14:42Z</time>
      </trkpt>
      <trkpt lat="43.39355" lon="6.08024">
        <ele>292.60000610352</ele>
        <time>2012-11-24T13:14:47Z</time>
      </trkpt>
      <trkpt lat="43.39339" lon="6.08042">
        <ele>293.60000610352</ele>
        <time>2012-11-24T13:14:56Z</time>
      </trkpt>
      <trkpt lat="43.39297" lon="6.08111">
        <ele>297</ele>
        <time>2012-11-24T13:15:27Z</time>
      </trkpt>
      <trkpt lat="43.39296" lon="6.08118">
        <ele>297</ele>
        <time>2012-11-24T13:15:42Z</time>
      </trkpt>
      <trkpt lat="43.3929" lon="6.08126">
        <ele>297</ele>
        <time>2012-11-24T13:15:46Z</time>
      </trkpt>
      <trkpt lat="43.39287" lon="6.08143">
        <ele>299.20001220703</ele>
        <time>2012-11-24T13:15:52Z</time>
      </trkpt>
      <trkpt lat="43.39287" lon="6.08144">
        <ele>299.20001220703</ele>
        <time>2012-11-24T13:16:06Z</time>
      </trkpt>
      <trkpt lat="43.39288" lon="6.0815">
        <ele>299.20001220703</ele>
        <time>2012-11-24T13:16:18Z</time>
      </trkpt>
      <trkpt lat="43.39288" lon="6.08152">
        <ele>299.20001220703</ele>
        <time>2012-11-24T13:16:19Z</time>
      </trkpt>
      <trkpt lat="43.39282" lon="6.08168">
        <ele>301.20001220703</ele>
        <time>2012-11-24T13:16:26Z</time>
      </trkpt>
      <trkpt lat="43.39279" lon="6.08174">
        <ele>301.20001220703</ele>
        <time>2012-11-24T13:16:43Z</time>
      </trkpt>
      <trkpt lat="43.39279" lon="6.08177">
        <ele>301.20001220703</ele>
        <time>2012-11-24T13:16:48Z</time>
      </trkpt>
      <trkpt lat="43.39264" lon="6.08255">
        <ele>306.39999389648</ele>
        <time>2012-11-24T13:17:22Z</time>
      </trkpt>
      <trkpt lat="43.39242" lon="6.08284">
        <ele>309.39999389648</ele>
        <time>2012-11-24T13:17:43Z</time>
      </trkpt>
      <trkpt lat="43.39239" lon="6.08291">
        <ele>309.79998779297</ele>
        <time>2012-11-24T13:17:59Z</time>
      </trkpt>
      <trkpt lat="43.39239" lon="6.08291">
        <ele>311.39999389648</ele>
        <time>2012-11-24T13:18:32Z</time>
      </trkpt>
      <trkpt lat="43.39226" lon="6.0832">
        <ele>313.39999389648</ele>
        <time>2012-11-24T13:18:49Z</time>
      </trkpt>
      <trkpt lat="43.39223" lon="6.08328">
        <ele>313.39999389648</ele>
        <time>2012-11-24T13:18:59Z</time>
      </trkpt>
      <trkpt lat="43.39223" lon="6.08329">
        <ele>315.39999389648</ele>
        <time>2012-11-24T13:19:16Z</time>
      </trkpt>
      <trkpt lat="43.39217" lon="6.08366">
        <ele>315.79998779297</ele>
        <time>2012-11-24T13:19:33Z</time>
      </trkpt>
      <trkpt lat="43.39212" lon="6.08382">
        <ele>317.60000610352</ele>
        <time>2012-11-24T13:19:39Z</time>
      </trkpt>
      <trkpt lat="43.39212" lon="6.08392">
        <ele>318.39999389648</ele>
        <time>2012-11-24T13:19:43Z</time>
      </trkpt>
      <trkpt lat="43.39212" lon="6.08405">
        <ele>319.60000610352</ele>
        <time>2012-11-24T13:19:48Z</time>
      </trkpt>
      <trkpt lat="43.3921" lon="6.08409">
        <ele>319.60000610352</ele>
        <time>2012-11-24T13:19:50Z</time>
      </trkpt>
      <trkpt lat="43.39209" lon="6.08412">
        <ele>320</ele>
        <time>2012-11-24T13:19:54Z</time>
      </trkpt>
      <trkpt lat="43.39209" lon="6.08412">
        <ele>321.79998779297</ele>
        <time>2012-11-24T13:20:03Z</time>
      </trkpt>
      <trkpt lat="43.39206" lon="6.08421">
        <ele>321.79998779297</ele>
        <time>2012-11-24T13:20:12Z</time>
      </trkpt>
      <trkpt lat="43.39205" lon="6.08428">
        <ele>321.79998779297</ele>
        <time>2012-11-24T13:20:16Z</time>
      </trkpt>
      <trkpt lat="43.39206" lon="6.0844">
        <ele>323.79998779297</ele>
        <time>2012-11-24T13:20:42Z</time>
      </trkpt>
      <trkpt lat="43.39206" lon="6.0844">
        <ele>323.79998779297</ele>
        <time>2012-11-24T13:20:59Z</time>
      </trkpt>
      <trkpt lat="43.39199" lon="6.08477">
        <ele>324.60000610352</ele>
        <time>2012-11-24T13:21:16Z</time>
      </trkpt>
      <trkpt lat="43.39198" lon="6.08505">
        <ele>325.79998779297</ele>
        <time>2012-11-24T13:21:28Z</time>
      </trkpt>
      <trkpt lat="43.39189" lon="6.08517">
        <ele>325.79998779297</ele>
        <time>2012-11-24T13:21:35Z</time>
      </trkpt>
      <trkpt lat="43.39185" lon="6.08528">
        <ele>325.79998779297</ele>
        <time>2012-11-24T13:21:39Z</time>
      </trkpt>
      <trkpt lat="43.39173" lon="6.08573">
        <ele>325.79998779297</ele>
        <time>2012-11-24T13:21:52Z</time>
      </trkpt>
      <trkpt lat="43.39157" lon="6.0864">
        <ele>323.79998779297</ele>
        <time>2012-11-24T13:22:09Z</time>
      </trkpt>
      <trkpt lat="43.39151" lon="6.0868">
        <ele>323.79998779297</ele>
        <time>2012-11-24T13:22:20Z</time>
      </trkpt>
      <trkpt lat="43.39144" lon="6.08727">
        <ele>323.79998779297</ele>
        <time>2012-11-24T13:22:32Z</time>
      </trkpt>
      <trkpt lat="43.39131" lon="6.08775">
        <ele>323.79998779297</ele>
        <time>2012-11-24T13:22:45Z</time>
      </trkpt>
      <trkpt lat="43.39118" lon="6.08828">
        <ele>324.20001220703</ele>
        <time>2012-11-24T13:22:59Z</time>
      </trkpt>
      <trkpt lat="43.39096" lon="6.08928">
        <ele>326</ele>
        <time>2012-11-24T13:23:26Z</time>
      </trkpt>
      <trkpt lat="43.39075" lon="6.08989">
        <ele>327.60000610352</ele>
        <time>2012-11-24T13:23:45Z</time>
      </trkpt>
      <trkpt lat="43.3905" lon="6.09038">
        <ele>328</ele>
        <time>2012-11-24T13:24:01Z</time>
      </trkpt>
      <trkpt lat="43.3903" lon="6.09086">
        <ele>328</ele>
        <time>2012-11-24T13:24:16Z</time>
      </trkpt>
      <trkpt lat="43.39019" lon="6.09124">
        <ele>330.20001220703</ele>
        <time>2012-11-24T13:24:27Z</time>
      </trkpt>
      <trkpt lat="43.39014" lon="6.0915">
        <ele>330.20001220703</ele>
        <time>2012-11-24T13:24:33Z</time>
      </trkpt>
      <trkpt lat="43.39001" lon="6.09229">
        <ele>330.20001220703</ele>
        <time>2012-11-24T13:24:52Z</time>
      </trkpt>
      <trkpt lat="43.38995" lon="6.09255">
        <ele>330.20001220703</ele>
        <time>2012-11-24T13:24:59Z</time>
      </trkpt>
      <trkpt lat="43.38976" lon="6.09297">
        <ele>332.20001220703</ele>
        <time>2012-11-24T13:25:13Z</time>
      </trkpt>
      <trkpt lat="43.38948" lon="6.09341">
        <ele>334.20001220703</ele>
        <time>2012-11-24T13:25:33Z</time>
      </trkpt>
      <trkpt lat="43.38918" lon="6.09374">
        <ele>335</ele>
        <time>2012-11-24T13:25:48Z</time>
      </trkpt>
      <trkpt lat="43.38897" lon="6.09397">
        <ele>338.39999389648</ele>
        <time>2012-11-24T13:26:03Z</time>
      </trkpt>
      <trkpt lat="43.38892" lon="6.09411">
        <ele>339.20001220703</ele>
        <time>2012-11-24T13:26:13Z</time>
      </trkpt>
      <trkpt lat="43.38886" lon="6.09418">
        <ele>340.60000610352</ele>
        <time>2012-11-24T13:26:20Z</time>
      </trkpt>
      <trkpt lat="43.38886" lon="6.09418">
        <ele>340.60000610352</ele>
        <time>2012-11-24T13:26:30Z</time>
      </trkpt>
      <trkpt lat="43.38884" lon="6.09421">
        <ele>341</ele>
        <time>2012-11-24T13:26:47Z</time>
      </trkpt>
      <trkpt lat="43.3888" lon="6.09428">
        <ele>342.60000610352</ele>
        <time>2012-11-24T13:27:03Z</time>
      </trkpt>
      <trkpt lat="43.3888" lon="6.09428">
        <ele>342.60000610352</ele>
        <time>2012-11-24T13:27:07Z</time>
      </trkpt>
      <trkpt lat="43.38866" lon="6.09423">
        <ele>342.60000610352</ele>
        <time>2012-11-24T13:27:40Z</time>
      </trkpt>
      <trkpt lat="43.38865" lon="6.09422">
        <ele>342.60000610352</ele>
        <time>2012-11-24T13:27:42Z</time>
      </trkpt>
      <trkpt lat="43.38864" lon="6.09421">
        <ele>342.60000610352</ele>
        <time>2012-11-24T13:27:46Z</time>
      </trkpt>
      <trkpt lat="43.38864" lon="6.09421">
        <ele>340.60000610352</ele>
        <time>2012-11-24T13:28:43Z</time>
      </trkpt>
      <trkpt lat="43.38864" lon="6.0942">
        <ele>340.60000610352</ele>
        <time>2012-11-24T13:28:50Z</time>
      </trkpt>
      <trkpt lat="43.3885" lon="6.09399">
        <ele>338.60000610352</ele>
        <time>2012-11-24T13:29:02Z</time>
      </trkpt>
      <trkpt lat="43.38845" lon="6.09394">
        <ele>338.60000610352</ele>
        <time>2012-11-24T13:29:05Z</time>
      </trkpt>
      <trkpt lat="43.38838" lon="6.09399">
        <ele>336.79998779297</ele>
        <time>2012-11-24T13:29:10Z</time>
      </trkpt>
      <trkpt lat="43.38831" lon="6.09424">
        <ele>333.20001220703</ele>
        <time>2012-11-24T13:29:19Z</time>
      </trkpt>
      <trkpt lat="43.38829" lon="6.09426">
        <ele>332</ele>
        <time>2012-11-24T13:29:23Z</time>
      </trkpt>
      <trkpt lat="43.38829" lon="6.09426">
        <ele>332</ele>
        <time>2012-11-24T13:29:55Z</time>
      </trkpt>
      <trkpt lat="43.38805" lon="6.09386">
        <ele>328.20001220703</ele>
        <time>2012-11-24T13:30:03Z</time>
      </trkpt>
      <trkpt lat="43.38801" lon="6.09381">
        <ele>327.39999389648</ele>
        <time>2012-11-24T13:30:04Z</time>
      </trkpt>
      <trkpt lat="43.38776" lon="6.09361">
        <ele>322.20001220703</ele>
        <time>2012-11-24T13:30:10Z</time>
      </trkpt>
      <trkpt lat="43.38752" lon="6.09347">
        <ele>317.60000610352</ele>
        <time>2012-11-24T13:30:15Z</time>
      </trkpt>
      <trkpt lat="43.38722" lon="6.09337">
        <ele>312.39999389648</ele>
        <time>2012-11-24T13:30:20Z</time>
      </trkpt>
      <trkpt lat="43.38705" lon="6.09325">
        <ele>309</ele>
        <time>2012-11-24T13:30:23Z</time>
      </trkpt>
      <trkpt lat="43.387" lon="6.09321">
        <ele>308</ele>
        <time>2012-11-24T13:30:24Z</time>
      </trkpt>
      <trkpt lat="43.38684" lon="6.09304">
        <ele>302.79998779297</ele>
        <time>2012-11-24T13:30:29Z</time>
      </trkpt>
      <trkpt lat="43.38679" lon="6.09304">
        <ele>299</ele>
        <time>2012-11-24T13:30:33Z</time>
      </trkpt>
      <trkpt lat="43.38677" lon="6.09306">
        <ele>297.79998779297</ele>
        <time>2012-11-24T13:30:34Z</time>
      </trkpt>
      <trkpt lat="43.38672" lon="6.09316">
        <ele>296.60000610352</ele>
        <time>2012-11-24T13:30:39Z</time>
      </trkpt>
      <trkpt lat="43.38673" lon="6.0934">
        <ele>296.60000610352</ele>
        <time>2012-11-24T13:30:50Z</time>
      </trkpt>
      <trkpt lat="43.38677" lon="6.09375">
        <ele>294.39999389648</ele>
        <time>2012-11-24T13:31:00Z</time>
      </trkpt>
      <trkpt lat="43.38672" lon="6.0941">
        <ele>293.60000610352</ele>
        <time>2012-11-24T13:31:07Z</time>
      </trkpt>
      <trkpt lat="43.38676" lon="6.09444">
        <ele>292.20001220703</ele>
        <time>2012-11-24T13:31:13Z</time>
      </trkpt>
      <trkpt lat="43.3867" lon="6.09506">
        <ele>292.20001220703</ele>
        <time>2012-11-24T13:31:24Z</time>
      </trkpt>
      <trkpt lat="43.3867" lon="6.09593">
        <ele>292.20001220703</ele>
        <time>2012-11-24T13:31:39Z</time>
      </trkpt>
      <trkpt lat="43.38667" lon="6.0961">
        <ele>292.20001220703</ele>
        <time>2012-11-24T13:31:42Z</time>
      </trkpt>
      <trkpt lat="43.38661" lon="6.09644">
        <ele>292.20001220703</ele>
        <time>2012-11-24T13:31:48Z</time>
      </trkpt>
      <trkpt lat="43.38598" lon="6.09776">
        <ele>287.60000610352</ele>
        <time>2012-11-24T13:32:08Z</time>
      </trkpt>
      <trkpt lat="43.38595" lon="6.09789">
        <ele>287.60000610352</ele>
        <time>2012-11-24T13:32:10Z</time>
      </trkpt>
      <trkpt lat="43.38594" lon="6.09808">
        <ele>287.60000610352</ele>
        <time>2012-11-24T13:32:13Z</time>
      </trkpt>
      <trkpt lat="43.38594" lon="6.09831">
        <ele>287.60000610352</ele>
        <time>2012-11-24T13:32:17Z</time>
      </trkpt>
      <trkpt lat="43.38596" lon="6.09875">
        <ele>288</ele>
        <time>2012-11-24T13:32:25Z</time>
      </trkpt>
      <trkpt lat="43.38597" lon="6.09898">
        <ele>290</ele>
        <time>2012-11-24T13:32:29Z</time>
      </trkpt>
      <trkpt lat="43.38604" lon="6.09926">
        <ele>291.20001220703</ele>
        <time>2012-11-24T13:32:34Z</time>
      </trkpt>
      <trkpt lat="43.38622" lon="6.09951">
        <ele>293.79998779297</ele>
        <time>2012-11-24T13:32:41Z</time>
      </trkpt>
      <trkpt lat="43.38646" lon="6.09974">
        <ele>295</ele>
        <time>2012-11-24T13:32:50Z</time>
      </trkpt>
      <trkpt lat="43.38651" lon="6.09979">
        <ele>295.79998779297</ele>
        <time>2012-11-24T13:32:52Z</time>
      </trkpt>
      <trkpt lat="43.38692" lon="6.10009">
        <ele>296.20001220703</ele>
        <time>2012-11-24T13:33:07Z</time>
      </trkpt>
      <trkpt lat="43.38701" lon="6.10022">
        <ele>296.60000610352</ele>
        <time>2012-11-24T13:33:12Z</time>
      </trkpt>
      <trkpt lat="43.38721" lon="6.10066">
        <ele>298.39999389648</ele>
        <time>2012-11-24T13:33:27Z</time>
      </trkpt>
      <trkpt lat="43.38738" lon="6.10098">
        <ele>300.39999389648</ele>
        <time>2012-11-24T13:33:38Z</time>
      </trkpt>
      <trkpt lat="43.38759" lon="6.10129">
        <ele>301.20001220703</ele>
        <time>2012-11-24T13:33:52Z</time>
      </trkpt>
      <trkpt lat="43.38791" lon="6.10163">
        <ele>304.79998779297</ele>
        <time>2012-11-24T13:34:12Z</time>
      </trkpt>
      <trkpt lat="43.38794" lon="6.10165">
        <ele>304.79998779297</ele>
        <time>2012-11-24T13:34:15Z</time>
      </trkpt>
      <trkpt lat="43.38795" lon="6.10165">
        <ele>304.79998779297</ele>
        <time>2012-11-24T13:34:53Z</time>
      </trkpt>
      <trkpt lat="43.38799" lon="6.10166">
        <ele>304.79998779297</ele>
        <time>2012-11-24T13:34:55Z</time>
      </trkpt>
      <trkpt lat="43.3882" lon="6.10163">
        <ele>306.39999389648</ele>
        <time>2012-11-24T13:35:03Z</time>
      </trkpt>
      <trkpt lat="43.38827" lon="6.10174">
        <ele>306.79998779297</ele>
        <time>2012-11-24T13:35:07Z</time>
      </trkpt>
      <trkpt lat="43.38818" lon="6.10204">
        <ele>307.20001220703</ele>
        <time>2012-11-24T13:35:21Z</time>
      </trkpt>
      <trkpt lat="43.38822" lon="6.10234">
        <ele>308.79998779297</ele>
        <time>2012-11-24T13:35:33Z</time>
      </trkpt>
      <trkpt lat="43.38831" lon="6.10302">
        <ele>306.60000610352</ele>
        <time>2012-11-24T13:35:48Z</time>
      </trkpt>
      <trkpt lat="43.38829" lon="6.10321">
        <ele>306.60000610352</ele>
        <time>2012-11-24T13:35:51Z</time>
      </trkpt>
      <trkpt lat="43.38834" lon="6.10379">
        <ele>305</ele>
        <time>2012-11-24T13:36:03Z</time>
      </trkpt>
      <trkpt lat="43.38833" lon="6.10385">
        <ele>304.39999389648</ele>
        <time>2012-11-24T13:36:04Z</time>
      </trkpt>
      <trkpt lat="43.38827" lon="6.10475">
        <ele>301.20001220703</ele>
        <time>2012-11-24T13:36:21Z</time>
      </trkpt>
      <trkpt lat="43.38814" lon="6.10523">
        <ele>300.20001220703</ele>
        <time>2012-11-24T13:36:31Z</time>
      </trkpt>
      <trkpt lat="43.38813" lon="6.10544">
        <ele>298.60000610352</ele>
        <time>2012-11-24T13:36:36Z</time>
      </trkpt>
      <trkpt lat="43.38806" lon="6.10567">
        <ele>298.20001220703</ele>
        <time>2012-11-24T13:36:43Z</time>
      </trkpt>
      <trkpt lat="43.38773" lon="6.10745">
        <ele>291.79998779297</ele>
        <time>2012-11-24T13:37:23Z</time>
      </trkpt>
      <trkpt lat="43.38784" lon="6.10757">
        <ele>290.60000610352</ele>
        <time>2012-11-24T13:37:32Z</time>
      </trkpt>
      <trkpt lat="43.38831" lon="6.10756">
        <ele>289.39999389648</ele>
        <time>2012-11-24T13:37:47Z</time>
      </trkpt>
      <trkpt lat="43.38867" lon="6.10754">
        <ele>287.60000610352</ele>
        <time>2012-11-24T13:37:56Z</time>
      </trkpt>
      <trkpt lat="43.38899" lon="6.10761">
        <ele>287.60000610352</ele>
        <time>2012-11-24T13:38:04Z</time>
      </trkpt>
      <trkpt lat="43.38914" lon="6.10771">
        <ele>287.20001220703</ele>
        <time>2012-11-24T13:38:08Z</time>
      </trkpt>
      <trkpt lat="43.38924" lon="6.10803">
        <ele>285.60000610352</ele>
        <time>2012-11-24T13:38:14Z</time>
      </trkpt>
      <trkpt lat="43.38934" lon="6.1082">
        <ele>285.60000610352</ele>
        <time>2012-11-24T13:38:18Z</time>
      </trkpt>
      <trkpt lat="43.3894" lon="6.10826">
        <ele>285.60000610352</ele>
        <time>2012-11-24T13:38:20Z</time>
      </trkpt>
      <trkpt lat="43.38982" lon="6.10843">
        <ele>285.60000610352</ele>
        <time>2012-11-24T13:38:30Z</time>
      </trkpt>
      <trkpt lat="43.39001" lon="6.10844">
        <ele>285.60000610352</ele>
        <time>2012-11-24T13:38:35Z</time>
      </trkpt>
      <trkpt lat="43.39022" lon="6.10834">
        <ele>285.60000610352</ele>
        <time>2012-11-24T13:38:40Z</time>
      </trkpt>
      <trkpt lat="43.39061" lon="6.10822">
        <ele>283.60000610352</ele>
        <time>2012-11-24T13:38:48Z</time>
      </trkpt>
      <trkpt lat="43.39077" lon="6.10813">
        <ele>283.60000610352</ele>
        <time>2012-11-24T13:38:52Z</time>
      </trkpt>
      <trkpt lat="43.39081" lon="6.10809">
        <ele>283.60000610352</ele>
        <time>2012-11-24T13:38:53Z</time>
      </trkpt>
      <trkpt lat="43.39104" lon="6.10781">
        <ele>283.60000610352</ele>
        <time>2012-11-24T13:39:00Z</time>
      </trkpt>
      <trkpt lat="43.39156" lon="6.10748">
        <ele>282.39999389648</ele>
        <time>2012-11-24T13:39:10Z</time>
      </trkpt>
      <trkpt lat="43.39166" lon="6.10736">
        <ele>281.39999389648</ele>
        <time>2012-11-24T13:39:12Z</time>
      </trkpt>
      <trkpt lat="43.39188" lon="6.10698">
        <ele>279.39999389648</ele>
        <time>2012-11-24T13:39:19Z</time>
      </trkpt>
      <trkpt lat="43.39199" lon="6.10703">
        <ele>279.39999389648</ele>
        <time>2012-11-24T13:39:24Z</time>
      </trkpt>
      <trkpt lat="43.39201" lon="6.10706">
        <ele>279.39999389648</ele>
        <time>2012-11-24T13:39:25Z</time>
      </trkpt>
      <trkpt lat="43.39219" lon="6.10741">
        <ele>279.39999389648</ele>
        <time>2012-11-24T13:39:37Z</time>
      </trkpt>
      <trkpt lat="43.39219" lon="6.10788">
        <ele>281.39999389648</ele>
        <time>2012-11-24T13:39:53Z</time>
      </trkpt>
      <trkpt lat="43.39227" lon="6.10842">
        <ele>281.39999389648</ele>
        <time>2012-11-24T13:40:08Z</time>
      </trkpt>
      <trkpt lat="43.39228" lon="6.10877">
        <ele>281.39999389648</ele>
        <time>2012-11-24T13:40:18Z</time>
      </trkpt>
      <trkpt lat="43.39205" lon="6.10921">
        <ele>281.39999389648</ele>
        <time>2012-11-24T13:40:32Z</time>
      </trkpt>
      <trkpt lat="43.39196" lon="6.10925">
        <ele>281.39999389648</ele>
        <time>2012-11-24T13:40:37Z</time>
      </trkpt>
      <trkpt lat="43.39184" lon="6.10935">
        <ele>281.39999389648</ele>
        <time>2012-11-24T13:40:44Z</time>
      </trkpt>
      <trkpt lat="43.39178" lon="6.1095">
        <ele>281.39999389648</ele>
        <time>2012-11-24T13:40:50Z</time>
      </trkpt>
      <trkpt lat="43.39151" lon="6.10986">
        <ele>285.60000610352</ele>
        <time>2012-11-24T13:41:10Z</time>
      </trkpt>
      <trkpt lat="43.3915" lon="6.10994">
        <ele>285.60000610352</ele>
        <time>2012-11-24T13:41:13Z</time>
      </trkpt>
      <trkpt lat="43.39153" lon="6.1102">
        <ele>285.60000610352</ele>
        <time>2012-11-24T13:41:21Z</time>
      </trkpt>
      <trkpt lat="43.39146" lon="6.1105">
        <ele>285.60000610352</ele>
        <time>2012-11-24T13:41:31Z</time>
      </trkpt>
      <trkpt lat="43.39141" lon="6.11135">
        <ele>286</ele>
        <time>2012-11-24T13:41:57Z</time>
      </trkpt>
      <trkpt lat="43.39141" lon="6.11148">
        <ele>287.79998779297</ele>
        <time>2012-11-24T13:42:01Z</time>
      </trkpt>
      <trkpt lat="43.39132" lon="6.11166">
        <ele>287.79998779297</ele>
        <time>2012-11-24T13:42:10Z</time>
      </trkpt>
      <trkpt lat="43.3912" lon="6.1117">
        <ele>289.39999389648</ele>
        <time>2012-11-24T13:42:16Z</time>
      </trkpt>
      <trkpt lat="43.39113" lon="6.1117">
        <ele>291.79998779297</ele>
        <time>2012-11-24T13:42:51Z</time>
      </trkpt>
      <trkpt lat="43.39112" lon="6.11176">
        <ele>291.79998779297</ele>
        <time>2012-11-24T13:42:55Z</time>
      </trkpt>
      <trkpt lat="43.39108" lon="6.11218">
        <ele>294</ele>
        <time>2012-11-24T13:43:14Z</time>
      </trkpt>
      <trkpt lat="43.39103" lon="6.1125">
        <ele>294</ele>
        <time>2012-11-24T13:43:25Z</time>
      </trkpt>
      <trkpt lat="43.3909" lon="6.1129">
        <ele>294</ele>
        <time>2012-11-24T13:43:36Z</time>
      </trkpt>
      <trkpt lat="43.39087" lon="6.11295">
        <ele>294</ele>
        <time>2012-11-24T13:43:39Z</time>
      </trkpt>
      <trkpt lat="43.39082" lon="6.11294">
        <ele>294.39999389648</ele>
        <time>2012-11-24T13:43:42Z</time>
      </trkpt>
      <trkpt lat="43.39063" lon="6.11259">
        <ele>296</ele>
        <time>2012-11-24T13:44:05Z</time>
      </trkpt>
      <trkpt lat="43.39054" lon="6.11249">
        <ele>297.60000610352</ele>
        <time>2012-11-24T13:44:11Z</time>
      </trkpt>
      <trkpt lat="43.39042" lon="6.11233">
        <ele>298</ele>
        <time>2012-11-24T13:44:17Z</time>
      </trkpt>
      <trkpt lat="43.39034" lon="6.11213">
        <ele>298</ele>
        <time>2012-11-24T13:44:22Z</time>
      </trkpt>
      <trkpt lat="43.39025" lon="6.11204">
        <ele>296.79998779297</ele>
        <time>2012-11-24T13:44:25Z</time>
      </trkpt>
      <trkpt lat="43.39012" lon="6.11191">
        <ele>295.79998779297</ele>
        <time>2012-11-24T13:44:31Z</time>
      </trkpt>
      <trkpt lat="43.39006" lon="6.11188">
        <ele>294.60000610352</ele>
        <time>2012-11-24T13:44:33Z</time>
      </trkpt>
      <trkpt lat="43.38977" lon="6.11189">
        <ele>291.60000610352</ele>
        <time>2012-11-24T13:44:41Z</time>
      </trkpt>
      <trkpt lat="43.38953" lon="6.11191">
        <ele>289.39999389648</ele>
        <time>2012-11-24T13:44:46Z</time>
      </trkpt>
      <trkpt lat="43.38919" lon="6.11181">
        <ele>287</ele>
        <time>2012-11-24T13:44:54Z</time>
      </trkpt>
      <trkpt lat="43.38903" lon="6.11181">
        <ele>287</ele>
        <time>2012-11-24T13:45:05Z</time>
      </trkpt>
      <trkpt lat="43.38876" lon="6.11177">
        <ele>287</ele>
        <time>2012-11-24T13:45:17Z</time>
      </trkpt>
      <trkpt lat="43.38848" lon="6.11171">
        <ele>287</ele>
        <time>2012-11-24T13:45:28Z</time>
      </trkpt>
      <trkpt lat="43.38838" lon="6.11165">
        <ele>287</ele>
        <time>2012-11-24T13:45:32Z</time>
      </trkpt>
      <trkpt lat="43.38807" lon="6.11143">
        <ele>288.79998779297</ele>
        <time>2012-11-24T13:45:45Z</time>
      </trkpt>
      <trkpt lat="43.3877" lon="6.11122">
        <ele>289.20001220703</ele>
        <time>2012-11-24T13:45:58Z</time>
      </trkpt>
      <trkpt lat="43.38729" lon="6.1111">
        <ele>289.20001220703</ele>
        <time>2012-11-24T13:46:11Z</time>
      </trkpt>
      <trkpt lat="43.38717" lon="6.11104">
        <ele>289.20001220703</ele>
        <time>2012-11-24T13:46:16Z</time>
      </trkpt>
      <trkpt lat="43.38714" lon="6.111">
        <ele>289.20001220703</ele>
        <time>2012-11-24T13:46:20Z</time>
      </trkpt>
      <trkpt lat="43.38712" lon="6.11093">
        <ele>289.20001220703</ele>
        <time>2012-11-24T13:46:55Z</time>
      </trkpt>
      <trkpt lat="43.38708" lon="6.11069">
        <ele>289.20001220703</ele>
        <time>2012-11-24T13:47:03Z</time>
      </trkpt>
      <trkpt lat="43.3869" lon="6.11059">
        <ele>291.20001220703</ele>
        <time>2012-11-24T13:47:11Z</time>
      </trkpt>
      <trkpt lat="43.38688" lon="6.11057">
        <ele>291.20001220703</ele>
        <time>2012-11-24T13:47:12Z</time>
      </trkpt>
      <trkpt lat="43.3863" lon="6.11004">
        <ele>295.39999389648</ele>
        <time>2012-11-24T13:47:43Z</time>
      </trkpt>
      <trkpt lat="43.38621" lon="6.10997">
        <ele>295.39999389648</ele>
        <time>2012-11-24T13:47:49Z</time>
      </trkpt>
      <trkpt lat="43.38609" lon="6.10991">
        <ele>295.39999389648</ele>
        <time>2012-11-24T13:47:54Z</time>
      </trkpt>
      <trkpt lat="43.38601" lon="6.10992">
        <ele>295.39999389648</ele>
        <time>2012-11-24T13:47:57Z</time>
      </trkpt>
      <trkpt lat="43.38595" lon="6.10993">
        <ele>295.39999389648</ele>
        <time>2012-11-24T13:47:59Z</time>
      </trkpt>
      <trkpt lat="43.38563" lon="6.1099">
        <ele>295.39999389648</ele>
        <time>2012-11-24T13:48:07Z</time>
      </trkpt>
      <trkpt lat="43.38536" lon="6.10976">
        <ele>294.20001220703</ele>
        <time>2012-11-24T13:48:15Z</time>
      </trkpt>
      <trkpt lat="43.38488" lon="6.10963">
        <ele>290.60000610352</ele>
        <time>2012-11-24T13:48:24Z</time>
      </trkpt>
      <trkpt lat="43.38475" lon="6.1096">
        <ele>289</ele>
        <time>2012-11-24T13:48:30Z</time>
      </trkpt>
      <trkpt lat="43.38468" lon="6.1096">
        <ele>289</ele>
        <time>2012-11-24T13:48:33Z</time>
      </trkpt>
      <trkpt lat="43.38441" lon="6.10956">
        <ele>286.79998779297</ele>
        <time>2012-11-24T13:48:48Z</time>
      </trkpt>
      <trkpt lat="43.38441" lon="6.10956">
        <ele>286.79998779297</ele>
        <time>2012-11-24T13:49:00Z</time>
      </trkpt>
      <trkpt lat="43.38405" lon="6.10947">
        <ele>286.79998779297</ele>
        <time>2012-11-24T13:49:39Z</time>
      </trkpt>
      <trkpt lat="43.38319" lon="6.10921">
        <ele>284.79998779297</ele>
        <time>2012-11-24T13:50:12Z</time>
      </trkpt>
      <trkpt lat="43.3826" lon="6.10903">
        <ele>284.79998779297</ele>
        <time>2012-11-24T13:50:29Z</time>
      </trkpt>
      <trkpt lat="43.382" lon="6.10888">
        <ele>284.79998779297</ele>
        <time>2012-11-24T13:50:52Z</time>
      </trkpt>
      <trkpt lat="43.38189" lon="6.10936">
        <ele>284.79998779297</ele>
        <time>2012-11-24T13:51:07Z</time>
      </trkpt>
      <trkpt lat="43.38176" lon="6.11007">
        <ele>286.79998779297</ele>
        <time>2012-11-24T13:51:26Z</time>
      </trkpt>
      <trkpt lat="43.38164" lon="6.11067">
        <ele>288.39999389648</ele>
        <time>2012-11-24T13:51:43Z</time>
      </trkpt>
      <trkpt lat="43.38148" lon="6.1111">
        <ele>288.79998779297</ele>
        <time>2012-11-24T13:51:56Z</time>
      </trkpt>
      <trkpt lat="43.38131" lon="6.11128">
        <ele>290.79998779297</ele>
        <time>2012-11-24T13:52:07Z</time>
      </trkpt>
      <trkpt lat="43.3812" lon="6.11145">
        <ele>290.79998779297</ele>
        <time>2012-11-24T13:52:16Z</time>
      </trkpt>
      <trkpt lat="43.38121" lon="6.11199">
        <ele>293</ele>
        <time>2012-11-24T13:52:38Z</time>
      </trkpt>
      <trkpt lat="43.38117" lon="6.1128">
        <ele>295</ele>
        <time>2012-11-24T13:53:02Z</time>
      </trkpt>
      <trkpt lat="43.38106" lon="6.11381">
        <ele>297.20001220703</ele>
        <time>2012-11-24T13:53:30Z</time>
      </trkpt>
      <trkpt lat="43.38089" lon="6.11469">
        <ele>300</ele>
        <time>2012-11-24T13:53:55Z</time>
      </trkpt>
      <trkpt lat="43.38078" lon="6.11628">
        <ele>304.39999389648</ele>
        <time>2012-11-24T13:54:41Z</time>
      </trkpt>
      <trkpt lat="43.38077" lon="6.11631">
        <ele>304.79998779297</ele>
        <time>2012-11-24T13:54:42Z</time>
      </trkpt>
      <trkpt lat="43.3807" lon="6.11681">
        <ele>306.60000610352</ele>
        <time>2012-11-24T13:54:58Z</time>
      </trkpt>
      <trkpt lat="43.38069" lon="6.11759">
        <ele>309.39999389648</ele>
        <time>2012-11-24T13:55:22Z</time>
      </trkpt>
      <trkpt lat="43.38078" lon="6.11797">
        <ele>311.39999389648</ele>
        <time>2012-11-24T13:55:36Z</time>
      </trkpt>
      <trkpt lat="43.38079" lon="6.11836">
        <ele>311.39999389648</ele>
        <time>2012-11-24T13:55:50Z</time>
      </trkpt>
      <trkpt lat="43.38077" lon="6.11903">
        <ele>315.60000610352</ele>
        <time>2012-11-24T13:56:16Z</time>
      </trkpt>
      <trkpt lat="43.38072" lon="6.11966">
        <ele>318</ele>
        <time>2012-11-24T13:56:42Z</time>
      </trkpt>
      <trkpt lat="43.38072" lon="6.11985">
        <ele>320.20001220703</ele>
        <time>2012-11-24T13:56:50Z</time>
      </trkpt>
      <trkpt lat="43.38067" lon="6.12012">
        <ele>323.20001220703</ele>
        <time>2012-11-24T13:57:00Z</time>
      </trkpt>
      <trkpt lat="43.38064" lon="6.12062">
        <ele>327</ele>
        <time>2012-11-24T13:57:23Z</time>
      </trkpt>
      <trkpt lat="43.38063" lon="6.12064">
        <ele>327.60000610352</ele>
        <time>2012-11-24T13:57:24Z</time>
      </trkpt>
      <trkpt lat="43.38057" lon="6.12097">
        <ele>328.39999389648</ele>
        <time>2012-11-24T13:57:49Z</time>
      </trkpt>
      <trkpt lat="43.38057" lon="6.12097">
        <ele>328.39999389648</ele>
        <time>2012-11-24T13:58:16Z</time>
      </trkpt>
      <trkpt lat="43.38038" lon="6.12146">
        <ele>332.60000610352</ele>
        <time>2012-11-24T13:58:39Z</time>
      </trkpt>
      <trkpt lat="43.38034" lon="6.12167">
        <ele>333.79998779297</ele>
        <time>2012-11-24T13:58:48Z</time>
      </trkpt>
      <trkpt lat="43.38032" lon="6.12187">
        <ele>334.60000610352</ele>
        <time>2012-11-24T13:58:55Z</time>
      </trkpt>
      <trkpt lat="43.38037" lon="6.12225">
        <ele>334.60000610352</ele>
        <time>2012-11-24T13:59:08Z</time>
      </trkpt>
      <trkpt lat="43.38046" lon="6.12251">
        <ele>336.60000610352</ele>
        <time>2012-11-24T13:59:17Z</time>
      </trkpt>
      <trkpt lat="43.38054" lon="6.12275">
        <ele>337.20001220703</ele>
        <time>2012-11-24T13:59:27Z</time>
      </trkpt>
      <trkpt lat="43.38055" lon="6.12312">
        <ele>341</ele>
        <time>2012-11-24T13:59:41Z</time>
      </trkpt>
      <trkpt lat="43.38052" lon="6.12323">
        <ele>341</ele>
        <time>2012-11-24T13:59:46Z</time>
      </trkpt>
      <trkpt lat="43.38046" lon="6.12359">
        <ele>343</ele>
        <time>2012-11-24T14:00:01Z</time>
      </trkpt>
      <trkpt lat="43.38046" lon="6.12363">
        <ele>343</ele>
        <time>2012-11-24T14:00:03Z</time>
      </trkpt>
      <trkpt lat="43.38057" lon="6.12407">
        <ele>346.60000610352</ele>
        <time>2012-11-24T14:00:22Z</time>
      </trkpt>
      <trkpt lat="43.38061" lon="6.12422">
        <ele>348.79998779297</ele>
        <time>2012-11-24T14:00:30Z</time>
      </trkpt>
      <trkpt lat="43.38063" lon="6.1244">
        <ele>349.20001220703</ele>
        <time>2012-11-24T14:00:41Z</time>
      </trkpt>
      <trkpt lat="43.38067" lon="6.12499">
        <ele>353.60000610352</ele>
        <time>2012-11-24T14:01:07Z</time>
      </trkpt>
      <trkpt lat="43.38057" lon="6.12539">
        <ele>355.20001220703</ele>
        <time>2012-11-24T14:01:24Z</time>
      </trkpt>
      <trkpt lat="43.38058" lon="6.12554">
        <ele>355.60000610352</ele>
        <time>2012-11-24T14:01:30Z</time>
      </trkpt>
      <trkpt lat="43.38057" lon="6.12563">
        <ele>356</ele>
        <time>2012-11-24T14:01:34Z</time>
      </trkpt>
      <trkpt lat="43.38048" lon="6.12595">
        <ele>359.60000610352</ele>
        <time>2012-11-24T14:01:49Z</time>
      </trkpt>
      <trkpt lat="43.3804" lon="6.12661">
        <ele>363</ele>
        <time>2012-11-24T14:02:17Z</time>
      </trkpt>
      <trkpt lat="43.38025" lon="6.1269">
        <ele>365.39999389648</ele>
        <time>2012-11-24T14:02:32Z</time>
      </trkpt>
      <trkpt lat="43.38024" lon="6.12692">
        <ele>365.79998779297</ele>
        <time>2012-11-24T14:02:33Z</time>
      </trkpt>
      <trkpt lat="43.38019" lon="6.1271">
        <ele>365.79998779297</ele>
        <time>2012-11-24T14:02:40Z</time>
      </trkpt>
      <trkpt lat="43.37993" lon="6.12848">
        <ele>373.60000610352</ele>
        <time>2012-11-24T14:03:39Z</time>
      </trkpt>
      <trkpt lat="43.37977" lon="6.1292">
        <ele>378.20001220703</ele>
        <time>2012-11-24T14:04:12Z</time>
      </trkpt>
      <trkpt lat="43.3796" lon="6.12956">
        <ele>381.60000610352</ele>
        <time>2012-11-24T14:04:32Z</time>
      </trkpt>
      <trkpt lat="43.37955" lon="6.12984">
        <ele>382.60000610352</ele>
        <time>2012-11-24T14:04:46Z</time>
      </trkpt>
      <trkpt lat="43.37924" lon="6.1304">
        <ele>386.60000610352</ele>
        <time>2012-11-24T14:05:14Z</time>
      </trkpt>
      <trkpt lat="43.37914" lon="6.13072">
        <ele>388.79998779297</ele>
        <time>2012-11-24T14:05:26Z</time>
      </trkpt>
      <trkpt lat="43.37914" lon="6.13099">
        <ele>389.60000610352</ele>
        <time>2012-11-24T14:05:35Z</time>
      </trkpt>
      <trkpt lat="43.37902" lon="6.13134">
        <ele>392.79998779297</ele>
        <time>2012-11-24T14:05:53Z</time>
      </trkpt>
      <trkpt lat="43.37897" lon="6.13197">
        <ele>395</ele>
        <time>2012-11-24T14:06:14Z</time>
      </trkpt>
      <trkpt lat="43.37897" lon="6.13202">
        <ele>396.20001220703</ele>
        <time>2012-11-24T14:06:16Z</time>
      </trkpt>
      <trkpt lat="43.37889" lon="6.13236">
        <ele>399.20001220703</ele>
        <time>2012-11-24T14:06:32Z</time>
      </trkpt>
      <trkpt lat="43.37887" lon="6.13256">
        <ele>399.60000610352</ele>
        <time>2012-11-24T14:06:40Z</time>
      </trkpt>
      <trkpt lat="43.37887" lon="6.13258">
        <ele>400.39999389648</ele>
        <time>2012-11-24T14:06:41Z</time>
      </trkpt>
      <trkpt lat="43.37889" lon="6.13282">
        <ele>403.20001220703</ele>
        <time>2012-11-24T14:06:54Z</time>
      </trkpt>
      <trkpt lat="43.37877" lon="6.13323">
        <ele>407.39999389648</ele>
        <time>2012-11-24T14:07:17Z</time>
      </trkpt>
      <trkpt lat="43.37874" lon="6.13347">
        <ele>409.39999389648</ele>
        <time>2012-11-24T14:07:34Z</time>
      </trkpt>
      <trkpt lat="43.37874" lon="6.13348">
        <ele>409.39999389648</ele>
        <time>2012-11-24T14:07:49Z</time>
      </trkpt>
      <trkpt lat="43.37875" lon="6.1335">
        <ele>409.39999389648</ele>
        <time>2012-11-24T14:12:28Z</time>
      </trkpt>
      <trkpt lat="43.3787" lon="6.13365">
        <ele>409.39999389648</ele>
        <time>2012-11-24T14:13:09Z</time>
      </trkpt>
      <trkpt lat="43.37861" lon="6.13424">
        <ele>409.39999389648</ele>
        <time>2012-11-24T14:13:33Z</time>
      </trkpt>
      <trkpt lat="43.37861" lon="6.13475">
        <ele>411.60000610352</ele>
        <time>2012-11-24T14:13:51Z</time>
      </trkpt>
      <trkpt lat="43.3786" lon="6.13496">
        <ele>413.79998779297</ele>
        <time>2012-11-24T14:13:59Z</time>
      </trkpt>
      <trkpt lat="43.37857" lon="6.13508">
        <ele>415.20001220703</ele>
        <time>2012-11-24T14:14:07Z</time>
      </trkpt>
      <trkpt lat="43.37853" lon="6.13532">
        <ele>416</ele>
        <time>2012-11-24T14:14:18Z</time>
      </trkpt>
      <trkpt lat="43.3785" lon="6.13547">
        <ele>416</ele>
        <time>2012-11-24T14:14:25Z</time>
      </trkpt>
      <trkpt lat="43.37843" lon="6.13562">
        <ele>416</ele>
        <time>2012-11-24T14:14:32Z</time>
      </trkpt>
      <trkpt lat="43.37828" lon="6.13572">
        <ele>416</ele>
        <time>2012-11-24T14:14:47Z</time>
      </trkpt>
      <trkpt lat="43.37821" lon="6.1357">
        <ele>416</ele>
        <time>2012-11-24T14:15:27Z</time>
      </trkpt>
      <trkpt lat="43.37803" lon="6.13573">
        <ele>416</ele>
        <time>2012-11-24T14:15:32Z</time>
      </trkpt>
      <trkpt lat="43.37783" lon="6.13579">
        <ele>416</ele>
        <time>2012-11-24T14:15:37Z</time>
      </trkpt>
      <trkpt lat="43.37777" lon="6.13582">
        <ele>416</ele>
        <time>2012-11-24T14:15:42Z</time>
      </trkpt>
      <trkpt lat="43.37762" lon="6.13599">
        <ele>414</ele>
        <time>2012-11-24T14:15:52Z</time>
      </trkpt>
      <trkpt lat="43.37757" lon="6.13608">
        <ele>414</ele>
        <time>2012-11-24T14:15:57Z</time>
      </trkpt>
      <trkpt lat="43.37733" lon="6.13621">
        <ele>413.20001220703</ele>
        <time>2012-11-24T14:16:06Z</time>
      </trkpt>
      <trkpt lat="43.37704" lon="6.13661">
        <ele>409.39999389648</ele>
        <time>2012-11-24T14:16:14Z</time>
      </trkpt>
      <trkpt lat="43.37692" lon="6.13676">
        <ele>408</ele>
        <time>2012-11-24T14:16:17Z</time>
      </trkpt>
      <trkpt lat="43.37686" lon="6.13679">
        <ele>407</ele>
        <time>2012-11-24T14:16:19Z</time>
      </trkpt>
      <trkpt lat="43.37668" lon="6.13655">
        <ele>402.60000610352</ele>
        <time>2012-11-24T14:16:29Z</time>
      </trkpt>
      <trkpt lat="43.37667" lon="6.13652">
        <ele>402.20001220703</ele>
        <time>2012-11-24T14:16:30Z</time>
      </trkpt>
      <trkpt lat="43.37662" lon="6.13643">
        <ele>401</ele>
        <time>2012-11-24T14:16:38Z</time>
      </trkpt>
      <trkpt lat="43.3765" lon="6.1362">
        <ele>398.79998779297</ele>
        <time>2012-11-24T14:16:45Z</time>
      </trkpt>
      <trkpt lat="43.37633" lon="6.13568">
        <ele>393.79998779297</ele>
        <time>2012-11-24T14:16:57Z</time>
      </trkpt>
      <trkpt lat="43.37626" lon="6.13543">
        <ele>390.20001220703</ele>
        <time>2012-11-24T14:17:03Z</time>
      </trkpt>
      <trkpt lat="43.37612" lon="6.135">
        <ele>387.79998779297</ele>
        <time>2012-11-24T14:17:09Z</time>
      </trkpt>
      <trkpt lat="43.37611" lon="6.13494">
        <ele>387</ele>
        <time>2012-11-24T14:17:10Z</time>
      </trkpt>
      <trkpt lat="43.37599" lon="6.1347">
        <ele>382.79998779297</ele>
        <time>2012-11-24T14:17:16Z</time>
      </trkpt>
      <trkpt lat="43.37598" lon="6.13467">
        <ele>382.20001220703</ele>
        <time>2012-11-24T14:17:17Z</time>
      </trkpt>
      <trkpt lat="43.37592" lon="6.13464">
        <ele>380.60000610352</ele>
        <time>2012-11-24T14:17:20Z</time>
      </trkpt>
      <trkpt lat="43.37592" lon="6.13464">
        <ele>380</ele>
        <time>2012-11-24T14:17:21Z</time>
      </trkpt>
      <trkpt lat="43.37592" lon="6.13464">
        <ele>379.60000610352</ele>
        <time>2012-11-24T14:17:22Z</time>
      </trkpt>
      <trkpt lat="43.37592" lon="6.13464">
        <ele>377.79998779297</ele>
        <time>2012-11-24T14:17:34Z</time>
      </trkpt>
      <trkpt lat="43.37592" lon="6.13466">
        <ele>377.79998779297</ele>
        <time>2012-11-24T14:17:38Z</time>
      </trkpt>
      <trkpt lat="43.37572" lon="6.13514">
        <ele>375.39999389648</ele>
        <time>2012-11-24T14:17:49Z</time>
      </trkpt>
      <trkpt lat="43.3757" lon="6.13517">
        <ele>375.39999389648</ele>
        <time>2012-11-24T14:17:50Z</time>
      </trkpt>
      <trkpt lat="43.37563" lon="6.13514">
        <ele>374.39999389648</ele>
        <time>2012-11-24T14:17:53Z</time>
      </trkpt>
      <trkpt lat="43.37561" lon="6.13493">
        <ele>372.20001220703</ele>
        <time>2012-11-24T14:17:58Z</time>
      </trkpt>
      <trkpt lat="43.37547" lon="6.13465">
        <ele>368.39999389648</ele>
        <time>2012-11-24T14:18:08Z</time>
      </trkpt>
      <trkpt lat="43.37543" lon="6.1346">
        <ele>367.60000610352</ele>
        <time>2012-11-24T14:18:10Z</time>
      </trkpt>
      <trkpt lat="43.37536" lon="6.1346">
        <ele>366.20001220703</ele>
        <time>2012-11-24T14:18:13Z</time>
      </trkpt>
      <trkpt lat="43.37532" lon="6.13462">
        <ele>364.60000610352</ele>
        <time>2012-11-24T14:18:15Z</time>
      </trkpt>
      <trkpt lat="43.37525" lon="6.13466">
        <ele>362.39999389648</ele>
        <time>2012-11-24T14:18:20Z</time>
      </trkpt>
      <trkpt lat="43.37524" lon="6.13466">
        <ele>362.39999389648</ele>
        <time>2012-11-24T14:18:22Z</time>
      </trkpt>
      <trkpt lat="43.37525" lon="6.13469">
        <ele>362.39999389648</ele>
        <time>2012-11-24T14:18:30Z</time>
      </trkpt>
      <trkpt lat="43.37525" lon="6.13475">
        <ele>362.39999389648</ele>
        <time>2012-11-24T14:18:34Z</time>
      </trkpt>
      <trkpt lat="43.37525" lon="6.1349">
        <ele>362.39999389648</ele>
        <time>2012-11-24T14:20:09Z</time>
      </trkpt>
      <trkpt lat="43.37532" lon="6.13524">
        <ele>362.39999389648</ele>
        <time>2012-11-24T14:20:26Z</time>
      </trkpt>
      <trkpt lat="43.37531" lon="6.13548">
        <ele>363.20001220703</ele>
        <time>2012-11-24T14:20:38Z</time>
      </trkpt>
      <trkpt lat="43.37533" lon="6.13566">
        <ele>364.39999389648</ele>
        <time>2012-11-24T14:20:48Z</time>
      </trkpt>
      <trkpt lat="43.37556" lon="6.13654">
        <ele>368.39999389648</ele>
        <time>2012-11-24T14:21:32Z</time>
      </trkpt>
      <trkpt lat="43.37556" lon="6.13685">
        <ele>368.39999389648</ele>
        <time>2012-11-24T14:21:44Z</time>
      </trkpt>
      <trkpt lat="43.37564" lon="6.13727">
        <ele>369.79998779297</ele>
        <time>2012-11-24T14:22:01Z</time>
      </trkpt>
      <trkpt lat="43.37569" lon="6.13762">
        <ele>371.39999389648</ele>
        <time>2012-11-24T14:22:15Z</time>
      </trkpt>
      <trkpt lat="43.3757" lon="6.13769">
        <ele>372.60000610352</ele>
        <time>2012-11-24T14:22:18Z</time>
      </trkpt>
      <trkpt lat="43.37571" lon="6.13813">
        <ele>372.60000610352</ele>
        <time>2012-11-24T14:22:35Z</time>
      </trkpt>
      <trkpt lat="43.37563" lon="6.13896">
        <ele>374.60000610352</ele>
        <time>2012-11-24T14:23:03Z</time>
      </trkpt>
      <trkpt lat="43.37545" lon="6.13959">
        <ele>375.79998779297</ele>
        <time>2012-11-24T14:23:26Z</time>
      </trkpt>
      <trkpt lat="43.37543" lon="6.13964">
        <ele>376.60000610352</ele>
        <time>2012-11-24T14:23:28Z</time>
      </trkpt>
      <trkpt lat="43.3754" lon="6.13968">
        <ele>376.60000610352</ele>
        <time>2012-11-24T14:23:30Z</time>
      </trkpt>
      <trkpt lat="43.37537" lon="6.14013">
        <ele>378.39999389648</ele>
        <time>2012-11-24T14:23:47Z</time>
      </trkpt>
      <trkpt lat="43.37522" lon="6.1405">
        <ele>379.20001220703</ele>
        <time>2012-11-24T14:24:03Z</time>
      </trkpt>
      <trkpt lat="43.37521" lon="6.14063">
        <ele>380.79998779297</ele>
        <time>2012-11-24T14:24:08Z</time>
      </trkpt>
      <trkpt lat="43.37516" lon="6.14105">
        <ele>382.79998779297</ele>
        <time>2012-11-24T14:24:28Z</time>
      </trkpt>
      <trkpt lat="43.37506" lon="6.14115">
        <ele>382.79998779297</ele>
        <time>2012-11-24T14:24:35Z</time>
      </trkpt>
      <trkpt lat="43.37495" lon="6.14136">
        <ele>384.20001220703</ele>
        <time>2012-11-24T14:24:47Z</time>
      </trkpt>
      <trkpt lat="43.37482" lon="6.14159">
        <ele>386.39999389648</ele>
        <time>2012-11-24T14:25:01Z</time>
      </trkpt>
      <trkpt lat="43.37463" lon="6.14164">
        <ele>387.20001220703</ele>
        <time>2012-11-24T14:25:13Z</time>
      </trkpt>
      <trkpt lat="43.37449" lon="6.14172">
        <ele>389.20001220703</ele>
        <time>2012-11-24T14:25:23Z</time>
      </trkpt>
      <trkpt lat="43.37403" lon="6.14199">
        <ele>396.79998779297</ele>
        <time>2012-11-24T14:25:56Z</time>
      </trkpt>
      <trkpt lat="43.37396" lon="6.14197">
        <ele>397.60000610352</ele>
        <time>2012-11-24T14:26:02Z</time>
      </trkpt>
      <trkpt lat="43.3739" lon="6.14194">
        <ele>397.60000610352</ele>
        <time>2012-11-24T14:26:07Z</time>
      </trkpt>
      <trkpt lat="43.37378" lon="6.14196">
        <ele>398</ele>
        <time>2012-11-24T14:26:15Z</time>
      </trkpt>
      <trkpt lat="43.37366" lon="6.14212">
        <ele>399.60000610352</ele>
        <time>2012-11-24T14:26:27Z</time>
      </trkpt>
      <trkpt lat="43.37357" lon="6.14233">
        <ele>401.60000610352</ele>
        <time>2012-11-24T14:26:44Z</time>
      </trkpt>
      <trkpt lat="43.37357" lon="6.14233">
        <ele>401.60000610352</ele>
        <time>2012-11-24T14:26:54Z</time>
      </trkpt>
      <trkpt lat="43.37354" lon="6.14232">
        <ele>401.60000610352</ele>
        <time>2012-11-24T14:27:11Z</time>
      </trkpt>
      <trkpt lat="43.37356" lon="6.14234">
        <ele>401.60000610352</ele>
        <time>2012-11-24T14:29:01Z</time>
      </trkpt>
      <trkpt lat="43.37354" lon="6.14233">
        <ele>401.60000610352</ele>
        <time>2012-11-24T14:33:16Z</time>
      </trkpt>
      <trkpt lat="43.37349" lon="6.14242">
        <ele>401.60000610352</ele>
        <time>2012-11-24T14:33:48Z</time>
      </trkpt>
      <trkpt lat="43.37334" lon="6.14257">
        <ele>401.60000610352</ele>
        <time>2012-11-24T14:33:56Z</time>
      </trkpt>
      <trkpt lat="43.37312" lon="6.14281">
        <ele>398.60000610352</ele>
        <time>2012-11-24T14:34:05Z</time>
      </trkpt>
      <trkpt lat="43.37288" lon="6.14292">
        <ele>395.39999389648</ele>
        <time>2012-11-24T14:34:10Z</time>
      </trkpt>
      <trkpt lat="43.37259" lon="6.1432">
        <ele>391</ele>
        <time>2012-11-24T14:34:16Z</time>
      </trkpt>
      <trkpt lat="43.37256" lon="6.14321">
        <ele>389.39999389648</ele>
        <time>2012-11-24T14:34:18Z</time>
      </trkpt>
      <trkpt lat="43.37256" lon="6.14322">
        <ele>389.39999389648</ele>
        <time>2012-11-24T14:34:24Z</time>
      </trkpt>
      <trkpt lat="43.37256" lon="6.14322">
        <ele>389.39999389648</ele>
        <time>2012-11-24T14:34:27Z</time>
      </trkpt>
      <trkpt lat="43.37255" lon="6.14321">
        <ele>389.39999389648</ele>
        <time>2012-11-24T14:34:30Z</time>
      </trkpt>
      <trkpt lat="43.37247" lon="6.14317">
        <ele>389</ele>
        <time>2012-11-24T14:34:33Z</time>
      </trkpt>
      <trkpt lat="43.37237" lon="6.14318">
        <ele>387.20001220703</ele>
        <time>2012-11-24T14:34:36Z</time>
      </trkpt>
      <trkpt lat="43.37233" lon="6.1432">
        <ele>387.20001220703</ele>
        <time>2012-11-24T14:34:40Z</time>
      </trkpt>
      <trkpt lat="43.37233" lon="6.1432">
        <ele>387.20001220703</ele>
        <time>2012-11-24T14:35:03Z</time>
      </trkpt>
      <trkpt lat="43.37225" lon="6.14323">
        <ele>387.20001220703</ele>
        <time>2012-11-24T14:35:09Z</time>
      </trkpt>
      <trkpt lat="43.37202" lon="6.14343">
        <ele>385</ele>
        <time>2012-11-24T14:35:21Z</time>
      </trkpt>
      <trkpt lat="43.37191" lon="6.14343">
        <ele>384.20001220703</ele>
        <time>2012-11-24T14:35:25Z</time>
      </trkpt>
      <trkpt lat="43.37186" lon="6.14351">
        <ele>382.79998779297</ele>
        <time>2012-11-24T14:35:29Z</time>
      </trkpt>
      <trkpt lat="43.37177" lon="6.1437">
        <ele>382.79998779297</ele>
        <time>2012-11-24T14:35:37Z</time>
      </trkpt>
      <trkpt lat="43.37168" lon="6.14369">
        <ele>382.79998779297</ele>
        <time>2012-11-24T14:35:40Z</time>
      </trkpt>
      <trkpt lat="43.37128" lon="6.14367">
        <ele>382.79998779297</ele>
        <time>2012-11-24T14:35:54Z</time>
      </trkpt>
      <trkpt lat="43.37101" lon="6.14352">
        <ele>382.79998779297</ele>
        <time>2012-11-24T14:36:03Z</time>
      </trkpt>
      <trkpt lat="43.37089" lon="6.14336">
        <ele>382.79998779297</ele>
        <time>2012-11-24T14:36:09Z</time>
      </trkpt>
      <trkpt lat="43.37085" lon="6.1431">
        <ele>381.60000610352</ele>
        <time>2012-11-24T14:36:15Z</time>
      </trkpt>
      <trkpt lat="43.37072" lon="6.14273">
        <ele>380.39999389648</ele>
        <time>2012-11-24T14:36:22Z</time>
      </trkpt>
      <trkpt lat="43.37059" lon="6.14208">
        <ele>378.60000610352</ele>
        <time>2012-11-24T14:36:32Z</time>
      </trkpt>
      <trkpt lat="43.37012" lon="6.14122">
        <ele>376.60000610352</ele>
        <time>2012-11-24T14:36:46Z</time>
      </trkpt>
      <trkpt lat="43.36996" lon="6.14104">
        <ele>375.79998779297</ele>
        <time>2012-11-24T14:36:49Z</time>
      </trkpt>
      <trkpt lat="43.36976" lon="6.14098">
        <ele>374.39999389648</ele>
        <time>2012-11-24T14:36:52Z</time>
      </trkpt>
      <trkpt lat="43.36951" lon="6.14107">
        <ele>374.39999389648</ele>
        <time>2012-11-24T14:36:56Z</time>
      </trkpt>
      <trkpt lat="43.36935" lon="6.14119">
        <ele>374.39999389648</ele>
        <time>2012-11-24T14:37:01Z</time>
      </trkpt>
      <trkpt lat="43.36933" lon="6.14117">
        <ele>374.39999389648</ele>
        <time>2012-11-24T14:37:02Z</time>
      </trkpt>
      <trkpt lat="43.36919" lon="6.14111">
        <ele>376.60000610352</ele>
        <time>2012-11-24T14:37:12Z</time>
      </trkpt>
      <trkpt lat="43.36912" lon="6.14113">
        <ele>376.60000610352</ele>
        <time>2012-11-24T14:37:25Z</time>
      </trkpt>
      <trkpt lat="43.369" lon="6.1412">
        <ele>376.60000610352</ele>
        <time>2012-11-24T14:37:41Z</time>
      </trkpt>
      <trkpt lat="43.36889" lon="6.14114">
        <ele>376.60000610352</ele>
        <time>2012-11-24T14:37:44Z</time>
      </trkpt>
      <trkpt lat="43.3688" lon="6.14094">
        <ele>376</ele>
        <time>2012-11-24T14:37:47Z</time>
      </trkpt>
      <trkpt lat="43.36874" lon="6.14061">
        <ele>374.20001220703</ele>
        <time>2012-11-24T14:37:51Z</time>
      </trkpt>
      <trkpt lat="43.36865" lon="6.14034">
        <ele>371.60000610352</ele>
        <time>2012-11-24T14:37:55Z</time>
      </trkpt>
      <trkpt lat="43.36861" lon="6.14001">
        <ele>369.20001220703</ele>
        <time>2012-11-24T14:37:59Z</time>
      </trkpt>
      <trkpt lat="43.3686" lon="6.13988">
        <ele>366.79998779297</ele>
        <time>2012-11-24T14:38:02Z</time>
      </trkpt>
      <trkpt lat="43.3686" lon="6.13983">
        <ele>365.20001220703</ele>
        <time>2012-11-24T14:38:05Z</time>
      </trkpt>
      <trkpt lat="43.36857" lon="6.13979">
        <ele>365.20001220703</ele>
        <time>2012-11-24T14:38:09Z</time>
      </trkpt>
      <trkpt lat="43.3684" lon="6.13965">
        <ele>363.20001220703</ele>
        <time>2012-11-24T14:38:16Z</time>
      </trkpt>
      <trkpt lat="43.36832" lon="6.1396">
        <ele>363.20001220703</ele>
        <time>2012-11-24T14:38:20Z</time>
      </trkpt>
      <trkpt lat="43.36826" lon="6.13972">
        <ele>363.20001220703</ele>
        <time>2012-11-24T14:38:26Z</time>
      </trkpt>
      <trkpt lat="43.36823" lon="6.1398">
        <ele>363.20001220703</ele>
        <time>2012-11-24T14:38:30Z</time>
      </trkpt>
      <trkpt lat="43.36799" lon="6.13993">
        <ele>365.39999389648</ele>
        <time>2012-11-24T14:38:43Z</time>
      </trkpt>
      <trkpt lat="43.36769" lon="6.14016">
        <ele>368.39999389648</ele>
        <time>2012-11-24T14:39:01Z</time>
      </trkpt>
      <trkpt lat="43.36757" lon="6.14018">
        <ele>369.60000610352</ele>
        <time>2012-11-24T14:39:08Z</time>
      </trkpt>
      <trkpt lat="43.3673" lon="6.14004">
        <ele>369.60000610352</ele>
        <time>2012-11-24T14:39:25Z</time>
      </trkpt>
      <trkpt lat="43.36719" lon="6.14005">
        <ele>371.79998779297</ele>
        <time>2012-11-24T14:39:33Z</time>
      </trkpt>
      <trkpt lat="43.36713" lon="6.14007">
        <ele>371.79998779297</ele>
        <time>2012-11-24T14:39:36Z</time>
      </trkpt>
      <trkpt lat="43.36683" lon="6.14043">
        <ele>371.79998779297</ele>
        <time>2012-11-24T14:39:51Z</time>
      </trkpt>
      <trkpt lat="43.36671" lon="6.14068">
        <ele>371.79998779297</ele>
        <time>2012-11-24T14:39:59Z</time>
      </trkpt>
      <trkpt lat="43.36664" lon="6.14105">
        <ele>371.79998779297</ele>
        <time>2012-11-24T14:40:10Z</time>
      </trkpt>
      <trkpt lat="43.36665" lon="6.14127">
        <ele>371.79998779297</ele>
        <time>2012-11-24T14:40:17Z</time>
      </trkpt>
      <trkpt lat="43.36666" lon="6.14139">
        <ele>373</ele>
        <time>2012-11-24T14:40:21Z</time>
      </trkpt>
      <trkpt lat="43.36681" lon="6.14224">
        <ele>377.79998779297</ele>
        <time>2012-11-24T14:40:48Z</time>
      </trkpt>
      <trkpt lat="43.36682" lon="6.14227">
        <ele>378.20001220703</ele>
        <time>2012-11-24T14:40:49Z</time>
      </trkpt>
      <trkpt lat="43.36678" lon="6.14312">
        <ele>380.20001220703</ele>
        <time>2012-11-24T14:41:18Z</time>
      </trkpt>
      <trkpt lat="43.36659" lon="6.14367">
        <ele>381.20001220703</ele>
        <time>2012-11-24T14:41:37Z</time>
      </trkpt>
      <trkpt lat="43.36647" lon="6.14382">
        <ele>382.39999389648</ele>
        <time>2012-11-24T14:41:44Z</time>
      </trkpt>
      <trkpt lat="43.36624" lon="6.14408">
        <ele>384</ele>
        <time>2012-11-24T14:41:59Z</time>
      </trkpt>
      <trkpt lat="43.36615" lon="6.14424">
        <ele>384.60000610352</ele>
        <time>2012-11-24T14:42:06Z</time>
      </trkpt>
      <trkpt lat="43.36607" lon="6.14441">
        <ele>385</ele>
        <time>2012-11-24T14:42:14Z</time>
      </trkpt>
      <trkpt lat="43.36601" lon="6.14461">
        <ele>386.60000610352</ele>
        <time>2012-11-24T14:42:22Z</time>
      </trkpt>
      <trkpt lat="43.36596" lon="6.14464">
        <ele>386.60000610352</ele>
        <time>2012-11-24T14:42:25Z</time>
      </trkpt>
      <trkpt lat="43.3659" lon="6.14461">
        <ele>386.60000610352</ele>
        <time>2012-11-24T14:42:27Z</time>
      </trkpt>
      <trkpt lat="43.36586" lon="6.14453">
        <ele>386.60000610352</ele>
        <time>2012-11-24T14:42:30Z</time>
      </trkpt>
      <trkpt lat="43.36586" lon="6.14434">
        <ele>386.60000610352</ele>
        <time>2012-11-24T14:42:37Z</time>
      </trkpt>
      <trkpt lat="43.36584" lon="6.14412">
        <ele>387.79998779297</ele>
        <time>2012-11-24T14:42:46Z</time>
      </trkpt>
      <trkpt lat="43.36582" lon="6.14407">
        <ele>388.60000610352</ele>
        <time>2012-11-24T14:42:48Z</time>
      </trkpt>
      <trkpt lat="43.36569" lon="6.14396">
        <ele>390.79998779297</ele>
        <time>2012-11-24T14:42:55Z</time>
      </trkpt>
      <trkpt lat="43.3656" lon="6.14391">
        <ele>392</ele>
        <time>2012-11-24T14:43:00Z</time>
      </trkpt>
      <trkpt lat="43.36531" lon="6.14386">
        <ele>397.20001220703</ele>
        <time>2012-11-24T14:44:49Z</time>
      </trkpt>
      <trkpt lat="43.36531" lon="6.14388">
        <ele>397.20001220703</ele>
        <time>2012-11-24T14:44:51Z</time>
      </trkpt>
      <trkpt lat="43.36538" lon="6.14404">
        <ele>399.20001220703</ele>
        <time>2012-11-24T14:45:01Z</time>
      </trkpt>
      <trkpt lat="43.36547" lon="6.14449">
        <ele>399.20001220703</ele>
        <time>2012-11-24T14:45:23Z</time>
      </trkpt>
      <trkpt lat="43.36546" lon="6.14462">
        <ele>399.20001220703</ele>
        <time>2012-11-24T14:45:31Z</time>
      </trkpt>
      <trkpt lat="43.36532" lon="6.14502">
        <ele>401.20001220703</ele>
        <time>2012-11-24T14:45:51Z</time>
      </trkpt>
      <trkpt lat="43.36534" lon="6.14569">
        <ele>402.39999389648</ele>
        <time>2012-11-24T14:46:16Z</time>
      </trkpt>
      <trkpt lat="43.36535" lon="6.14588">
        <ele>403.20001220703</ele>
        <time>2012-11-24T14:46:24Z</time>
      </trkpt>
      <trkpt lat="43.36528" lon="6.14654">
        <ele>407.39999389648</ele>
        <time>2012-11-24T14:46:58Z</time>
      </trkpt>
      <trkpt lat="43.36524" lon="6.14669">
        <ele>407.79998779297</ele>
        <time>2012-11-24T14:47:03Z</time>
      </trkpt>
      <trkpt lat="43.36522" lon="6.14675">
        <ele>410.39999389648</ele>
        <time>2012-11-24T14:47:20Z</time>
      </trkpt>
      <trkpt lat="43.36522" lon="6.14679">
        <ele>411.60000610352</ele>
        <time>2012-11-24T14:47:42Z</time>
      </trkpt>
      <trkpt lat="43.36523" lon="6.14703">
        <ele>412.20001220703</ele>
        <time>2012-11-24T14:47:56Z</time>
      </trkpt>
      <trkpt lat="43.36524" lon="6.14724">
        <ele>413.79998779297</ele>
        <time>2012-11-24T14:48:08Z</time>
      </trkpt>
      <trkpt lat="43.36522" lon="6.14735">
        <ele>416</ele>
        <time>2012-11-24T14:48:16Z</time>
      </trkpt>
      <trkpt lat="43.36523" lon="6.14736">
        <ele>416</ele>
        <time>2012-11-24T14:48:18Z</time>
      </trkpt>
      <trkpt lat="43.36523" lon="6.14736">
        <ele>416</ele>
        <time>2012-11-24T14:48:38Z</time>
      </trkpt>
      <trkpt lat="43.3652" lon="6.14757">
        <ele>417.60000610352</ele>
        <time>2012-11-24T14:48:52Z</time>
      </trkpt>
      <trkpt lat="43.36518" lon="6.14775">
        <ele>419.39999389648</ele>
        <time>2012-11-24T14:49:04Z</time>
      </trkpt>
      <trkpt lat="43.36525" lon="6.14819">
        <ele>422.60000610352</ele>
        <time>2012-11-24T14:49:34Z</time>
      </trkpt>
      <trkpt lat="43.36529" lon="6.14833">
        <ele>424.39999389648</ele>
        <time>2012-11-24T14:49:44Z</time>
      </trkpt>
      <trkpt lat="43.36535" lon="6.14851">
        <ele>426.39999389648</ele>
        <time>2012-11-24T14:49:55Z</time>
      </trkpt>
      <trkpt lat="43.3654" lon="6.14896">
        <ele>428.60000610352</ele>
        <time>2012-11-24T14:50:27Z</time>
      </trkpt>
      <trkpt lat="43.36555" lon="6.14998">
        <ele>428.60000610352</ele>
        <time>2012-11-24T14:51:43Z</time>
      </trkpt>
      <trkpt lat="43.36555" lon="6.15031">
        <ele>428.60000610352</ele>
        <time>2012-11-24T14:51:54Z</time>
      </trkpt>
      <trkpt lat="43.36556" lon="6.15049">
        <ele>428.60000610352</ele>
        <time>2012-11-24T14:51:59Z</time>
      </trkpt>
      <trkpt lat="43.36552" lon="6.15108">
        <ele>430.60000610352</ele>
        <time>2012-11-24T14:52:16Z</time>
      </trkpt>
      <trkpt lat="43.36557" lon="6.15176">
        <ele>431</ele>
        <time>2012-11-24T14:52:36Z</time>
      </trkpt>
      <trkpt lat="43.36555" lon="6.15182">
        <ele>432</ele>
        <time>2012-11-24T14:52:38Z</time>
      </trkpt>
      <trkpt lat="43.36553" lon="6.15203">
        <ele>432.79998779297</ele>
        <time>2012-11-24T14:52:45Z</time>
      </trkpt>
      <trkpt lat="43.36547" lon="6.15217">
        <ele>432.79998779297</ele>
        <time>2012-11-24T14:52:51Z</time>
      </trkpt>
      <trkpt lat="43.36512" lon="6.15248">
        <ele>436.79998779297</ele>
        <time>2012-11-24T14:53:14Z</time>
      </trkpt>
      <trkpt lat="43.36504" lon="6.15258">
        <ele>436.79998779297</ele>
        <time>2012-11-24T14:53:20Z</time>
      </trkpt>
      <trkpt lat="43.36493" lon="6.15274">
        <ele>438.79998779297</ele>
        <time>2012-11-24T14:53:28Z</time>
      </trkpt>
      <trkpt lat="43.36482" lon="6.15309">
        <ele>438.79998779297</ele>
        <time>2012-11-24T14:53:40Z</time>
      </trkpt>
      <trkpt lat="43.36482" lon="6.15324">
        <ele>438.79998779297</ele>
        <time>2012-11-24T14:53:47Z</time>
      </trkpt>
      <trkpt lat="43.36485" lon="6.15327">
        <ele>439.39999389648</ele>
        <time>2012-11-24T14:53:50Z</time>
      </trkpt>
      <trkpt lat="43.36485" lon="6.15328">
        <ele>441</ele>
        <time>2012-11-24T14:55:53Z</time>
      </trkpt>
      <trkpt lat="43.36499" lon="6.15356">
        <ele>441</ele>
        <time>2012-11-24T14:56:06Z</time>
      </trkpt>
      <trkpt lat="43.36509" lon="6.15397">
        <ele>440</ele>
        <time>2012-11-24T14:56:13Z</time>
      </trkpt>
      <trkpt lat="43.36517" lon="6.15618">
        <ele>434.39999389648</ele>
        <time>2012-11-24T14:56:50Z</time>
      </trkpt>
      <trkpt lat="43.36538" lon="6.15743">
        <ele>432.60000610352</ele>
        <time>2012-11-24T14:57:08Z</time>
      </trkpt>
      <trkpt lat="43.36547" lon="6.15778">
        <ele>432.20001220703</ele>
        <time>2012-11-24T14:57:13Z</time>
      </trkpt>
      <trkpt lat="43.36558" lon="6.15787">
        <ele>432.20001220703</ele>
        <time>2012-11-24T14:57:16Z</time>
      </trkpt>
      <trkpt lat="43.36596" lon="6.15772">
        <ele>429.79998779297</ele>
        <time>2012-11-24T14:57:23Z</time>
      </trkpt>
      <trkpt lat="43.36607" lon="6.15776">
        <ele>429.79998779297</ele>
        <time>2012-11-24T14:57:25Z</time>
      </trkpt>
      <trkpt lat="43.36654" lon="6.15811">
        <ele>428.20001220703</ele>
        <time>2012-11-24T14:57:36Z</time>
      </trkpt>
      <trkpt lat="43.36681" lon="6.15874">
        <ele>427.79998779297</ele>
        <time>2012-11-24T14:57:47Z</time>
      </trkpt>
      <trkpt lat="43.36695" lon="6.15885">
        <ele>427.79998779297</ele>
        <time>2012-11-24T14:57:51Z</time>
      </trkpt>
      <trkpt lat="43.36707" lon="6.15879">
        <ele>427.79998779297</ele>
        <time>2012-11-24T14:57:54Z</time>
      </trkpt>
      <trkpt lat="43.36722" lon="6.15861">
        <ele>427.20001220703</ele>
        <time>2012-11-24T14:57:58Z</time>
      </trkpt>
      <trkpt lat="43.36751" lon="6.15818">
        <ele>425.60000610352</ele>
        <time>2012-11-24T14:58:06Z</time>
      </trkpt>
      <trkpt lat="43.36774" lon="6.15776">
        <ele>423.39999389648</ele>
        <time>2012-11-24T14:58:14Z</time>
      </trkpt>
      <trkpt lat="43.36783" lon="6.15777">
        <ele>423.39999389648</ele>
        <time>2012-11-24T14:58:16Z</time>
      </trkpt>
      <trkpt lat="43.3679" lon="6.15787">
        <ele>423.39999389648</ele>
        <time>2012-11-24T14:58:19Z</time>
      </trkpt>
      <trkpt lat="43.36795" lon="6.158">
        <ele>423.39999389648</ele>
        <time>2012-11-24T14:58:22Z</time>
      </trkpt>
      <trkpt lat="43.36806" lon="6.15842">
        <ele>423.39999389648</ele>
        <time>2012-11-24T14:58:31Z</time>
      </trkpt>
      <trkpt lat="43.36819" lon="6.15967">
        <ele>421.39999389648</ele>
        <time>2012-11-24T14:58:56Z</time>
      </trkpt>
      <trkpt lat="43.36823" lon="6.16074">
        <ele>421.39999389648</ele>
        <time>2012-11-24T14:59:16Z</time>
      </trkpt>
      <trkpt lat="43.36821" lon="6.16143">
        <ele>421.39999389648</ele>
        <time>2012-11-24T14:59:29Z</time>
      </trkpt>
      <trkpt lat="43.36839" lon="6.1619">
        <ele>421.39999389648</ele>
        <time>2012-11-24T14:59:39Z</time>
      </trkpt>
      <trkpt lat="43.36859" lon="6.16209">
        <ele>419.79998779297</ele>
        <time>2012-11-24T14:59:47Z</time>
      </trkpt>
      <trkpt lat="43.36866" lon="6.16204">
        <ele>419.39999389648</ele>
        <time>2012-11-24T14:59:52Z</time>
      </trkpt>
      <trkpt lat="43.36867" lon="6.162">
        <ele>419.39999389648</ele>
        <time>2012-11-24T14:59:54Z</time>
      </trkpt>
      <trkpt lat="43.36868" lon="6.16199">
        <ele>419.39999389648</ele>
        <time>2012-11-24T15:00:57Z</time>
      </trkpt>
      <trkpt lat="43.36876" lon="6.16183">
        <ele>418.79998779297</ele>
        <time>2012-11-24T15:01:05Z</time>
      </trkpt>
      <trkpt lat="43.36893" lon="6.16127">
        <ele>413</ele>
        <time>2012-11-24T15:01:22Z</time>
      </trkpt>
      <trkpt lat="43.36922" lon="6.16083">
        <ele>403.79998779297</ele>
        <time>2012-11-24T15:01:42Z</time>
      </trkpt>
      <trkpt lat="43.36928" lon="6.16076">
        <ele>402.60000610352</ele>
        <time>2012-11-24T15:01:44Z</time>
      </trkpt>
      <trkpt lat="43.36944" lon="6.16037">
        <ele>399.20001220703</ele>
        <time>2012-11-24T15:01:51Z</time>
      </trkpt>
      <trkpt lat="43.36952" lon="6.16038">
        <ele>398</ele>
        <time>2012-11-24T15:01:54Z</time>
      </trkpt>
      <trkpt lat="43.36958" lon="6.16039">
        <ele>397.20001220703</ele>
        <time>2012-11-24T15:01:59Z</time>
      </trkpt>
      <trkpt lat="43.36958" lon="6.16039">
        <ele>395.60000610352</ele>
        <time>2012-11-24T15:02:16Z</time>
      </trkpt>
      <trkpt lat="43.3696" lon="6.16038">
        <ele>395.60000610352</ele>
        <time>2012-11-24T15:02:21Z</time>
      </trkpt>
      <trkpt lat="43.36973" lon="6.1603">
        <ele>395.60000610352</ele>
        <time>2012-11-24T15:02:26Z</time>
      </trkpt>
      <trkpt lat="43.36992" lon="6.16026">
        <ele>395</ele>
        <time>2012-11-24T15:02:32Z</time>
      </trkpt>
      <trkpt lat="43.36994" lon="6.16022">
        <ele>394.20001220703</ele>
        <time>2012-11-24T15:02:34Z</time>
      </trkpt>
      <trkpt lat="43.37005" lon="6.1602">
        <ele>393.20001220703</ele>
        <time>2012-11-24T15:02:37Z</time>
      </trkpt>
      <trkpt lat="43.37015" lon="6.16017">
        <ele>392</ele>
        <time>2012-11-24T15:02:41Z</time>
      </trkpt>
      <trkpt lat="43.37034" lon="6.16016">
        <ele>391</ele>
        <time>2012-11-24T15:02:51Z</time>
      </trkpt>
      <trkpt lat="43.37037" lon="6.16016">
        <ele>391</ele>
        <time>2012-11-24T15:02:52Z</time>
      </trkpt>
      <trkpt lat="43.37069" lon="6.16024">
        <ele>389</ele>
        <time>2012-11-24T15:03:07Z</time>
      </trkpt>
      <trkpt lat="43.37085" lon="6.16046">
        <ele>389</ele>
        <time>2012-11-24T15:03:35Z</time>
      </trkpt>
      <trkpt lat="43.37103" lon="6.16041">
        <ele>386.79998779297</ele>
        <time>2012-11-24T15:03:42Z</time>
      </trkpt>
      <trkpt lat="43.37107" lon="6.16048">
        <ele>386.39999389648</ele>
        <time>2012-11-24T15:03:44Z</time>
      </trkpt>
      <trkpt lat="43.37116" lon="6.16049">
        <ele>385.39999389648</ele>
        <time>2012-11-24T15:03:46Z</time>
      </trkpt>
      <trkpt lat="43.37123" lon="6.16056">
        <ele>384.39999389648</ele>
        <time>2012-11-24T15:03:48Z</time>
      </trkpt>
      <trkpt lat="43.37133" lon="6.16055">
        <ele>383.20001220703</ele>
        <time>2012-11-24T15:03:51Z</time>
      </trkpt>
      <trkpt lat="43.3715" lon="6.16061">
        <ele>381.79998779297</ele>
        <time>2012-11-24T15:03:55Z</time>
      </trkpt>
      <trkpt lat="43.37164" lon="6.16073">
        <ele>379.60000610352</ele>
        <time>2012-11-24T15:03:59Z</time>
      </trkpt>
      <trkpt lat="43.37185" lon="6.16057">
        <ele>377.60000610352</ele>
        <time>2012-11-24T15:04:06Z</time>
      </trkpt>
      <trkpt lat="43.37186" lon="6.16054">
        <ele>376.79998779297</ele>
        <time>2012-11-24T15:04:09Z</time>
      </trkpt>
      <trkpt lat="43.37187" lon="6.16054">
        <ele>375.60000610352</ele>
        <time>2012-11-24T15:04:12Z</time>
      </trkpt>
      <trkpt lat="43.37187" lon="6.16054">
        <ele>375.60000610352</ele>
        <time>2012-11-24T15:04:25Z</time>
      </trkpt>
      <trkpt lat="43.37193" lon="6.16054">
        <ele>375.60000610352</ele>
        <time>2012-11-24T15:04:30Z</time>
      </trkpt>
      <trkpt lat="43.37233" lon="6.16062">
        <ele>373.39999389648</ele>
        <time>2012-11-24T15:04:47Z</time>
      </trkpt>
      <trkpt lat="43.37263" lon="6.16075">
        <ele>373.39999389648</ele>
        <time>2012-11-24T15:05:01Z</time>
      </trkpt>
      <trkpt lat="43.37273" lon="6.16074">
        <ele>373</ele>
        <time>2012-11-24T15:05:04Z</time>
      </trkpt>
      <trkpt lat="43.37288" lon="6.16078">
        <ele>371.39999389648</ele>
        <time>2012-11-24T15:05:08Z</time>
      </trkpt>
      <trkpt lat="43.37302" lon="6.16074">
        <ele>371.39999389648</ele>
        <time>2012-11-24T15:05:12Z</time>
      </trkpt>
      <trkpt lat="43.37321" lon="6.16075">
        <ele>371</ele>
        <time>2012-11-24T15:05:16Z</time>
      </trkpt>
      <trkpt lat="43.37331" lon="6.16076">
        <ele>370</ele>
        <time>2012-11-24T15:05:18Z</time>
      </trkpt>
      <trkpt lat="43.37355" lon="6.16084">
        <ele>369.20001220703</ele>
        <time>2012-11-24T15:05:26Z</time>
      </trkpt>
      <trkpt lat="43.37375" lon="6.16085">
        <ele>367.39999389648</ele>
        <time>2012-11-24T15:05:31Z</time>
      </trkpt>
      <trkpt lat="43.37395" lon="6.16094">
        <ele>365.20001220703</ele>
        <time>2012-11-24T15:05:36Z</time>
      </trkpt>
      <trkpt lat="43.37402" lon="6.16098">
        <ele>364.60000610352</ele>
        <time>2012-11-24T15:05:38Z</time>
      </trkpt>
      <trkpt lat="43.37444" lon="6.16132">
        <ele>359.39999389648</ele>
        <time>2012-11-24T15:05:54Z</time>
      </trkpt>
      <trkpt lat="43.37446" lon="6.16133">
        <ele>359</ele>
        <time>2012-11-24T15:05:55Z</time>
      </trkpt>
      <trkpt lat="43.37452" lon="6.1613">
        <ele>356.20001220703</ele>
        <time>2012-11-24T15:06:01Z</time>
      </trkpt>
      <trkpt lat="43.37452" lon="6.1613">
        <ele>355.20001220703</ele>
        <time>2012-11-24T15:06:20Z</time>
      </trkpt>
      <trkpt lat="43.37453" lon="6.1613">
        <ele>355.20001220703</ele>
        <time>2012-11-24T15:06:27Z</time>
      </trkpt>
      <trkpt lat="43.37444" lon="6.16127">
        <ele>355.20001220703</ele>
        <time>2012-11-24T15:06:38Z</time>
      </trkpt>
      <trkpt lat="43.37445" lon="6.16127">
        <ele>355.20001220703</ele>
        <time>2012-11-24T15:06:53Z</time>
      </trkpt>
      <trkpt lat="43.37457" lon="6.16136">
        <ele>354.79998779297</ele>
        <time>2012-11-24T15:07:11Z</time>
      </trkpt>
      <trkpt lat="43.37469" lon="6.16129">
        <ele>352</ele>
        <time>2012-11-24T15:07:17Z</time>
      </trkpt>
      <trkpt lat="43.37471" lon="6.1613">
        <ele>351.39999389648</ele>
        <time>2012-11-24T15:07:18Z</time>
      </trkpt>
      <trkpt lat="43.37472" lon="6.16131">
        <ele>350.79998779297</ele>
        <time>2012-11-24T15:07:39Z</time>
      </trkpt>
      <trkpt lat="43.37475" lon="6.16132">
        <ele>350.79998779297</ele>
        <time>2012-11-24T15:07:43Z</time>
      </trkpt>
      <trkpt lat="43.37494" lon="6.16129">
        <ele>348.79998779297</ele>
        <time>2012-11-24T15:07:53Z</time>
      </trkpt>
      <trkpt lat="43.37505" lon="6.16112">
        <ele>346.79998779297</ele>
        <time>2012-11-24T15:08:00Z</time>
      </trkpt>
      <trkpt lat="43.37508" lon="6.1611">
        <ele>346.79998779297</ele>
        <time>2012-11-24T15:08:04Z</time>
      </trkpt>
      <trkpt lat="43.37508" lon="6.1611">
        <ele>346.79998779297</ele>
        <time>2012-11-24T15:08:15Z</time>
      </trkpt>
      <trkpt lat="43.37508" lon="6.16109">
        <ele>346.79998779297</ele>
        <time>2012-11-24T15:08:18Z</time>
      </trkpt>
      <trkpt lat="43.37511" lon="6.1609">
        <ele>346</ele>
        <time>2012-11-24T15:08:23Z</time>
      </trkpt>
      <trkpt lat="43.37518" lon="6.16073">
        <ele>344.60000610352</ele>
        <time>2012-11-24T15:08:29Z</time>
      </trkpt>
      <trkpt lat="43.37619" lon="6.15946">
        <ele>338.39999389648</ele>
        <time>2012-11-24T15:11:01Z</time>
      </trkpt>
      <trkpt lat="43.37629" lon="6.1592">
        <ele>337.20001220703</ele>
        <time>2012-11-24T15:11:06Z</time>
      </trkpt>
      <trkpt lat="43.37634" lon="6.15915">
        <ele>336.39999389648</ele>
        <time>2012-11-24T15:11:08Z</time>
      </trkpt>
      <trkpt lat="43.37653" lon="6.15909">
        <ele>336.39999389648</ele>
        <time>2012-11-24T15:11:13Z</time>
      </trkpt>
      <trkpt lat="43.37678" lon="6.15888">
        <ele>334.60000610352</ele>
        <time>2012-11-24T15:11:20Z</time>
      </trkpt>
      <trkpt lat="43.37681" lon="6.15885">
        <ele>334</ele>
        <time>2012-11-24T15:11:21Z</time>
      </trkpt>
      <trkpt lat="43.37689" lon="6.15872">
        <ele>334</ele>
        <time>2012-11-24T15:11:25Z</time>
      </trkpt>
      <trkpt lat="43.37691" lon="6.15849">
        <ele>335.20001220703</ele>
        <time>2012-11-24T15:11:33Z</time>
      </trkpt>
      <trkpt lat="43.37693" lon="6.15846">
        <ele>336</ele>
        <time>2012-11-24T15:11:35Z</time>
      </trkpt>
      <trkpt lat="43.37699" lon="6.15837">
        <ele>336</ele>
        <time>2012-11-24T15:11:41Z</time>
      </trkpt>
      <trkpt lat="43.37685" lon="6.15816">
        <ele>337.39999389648</ele>
        <time>2012-11-24T15:12:11Z</time>
      </trkpt>
      <trkpt lat="43.37675" lon="6.15807">
        <ele>338.20001220703</ele>
        <time>2012-11-24T15:12:20Z</time>
      </trkpt>
      <trkpt lat="43.37661" lon="6.15799">
        <ele>338.20001220703</ele>
        <time>2012-11-24T15:12:31Z</time>
      </trkpt>
      <trkpt lat="43.37652" lon="6.15796">
        <ele>338.20001220703</ele>
        <time>2012-11-24T15:12:36Z</time>
      </trkpt>
      <trkpt lat="43.3765" lon="6.15795">
        <ele>338.60000610352</ele>
        <time>2012-11-24T15:12:38Z</time>
      </trkpt>
      <trkpt lat="43.37623" lon="6.15792">
        <ele>342.39999389648</ele>
        <time>2012-11-24T15:12:58Z</time>
      </trkpt>
      <trkpt lat="43.37602" lon="6.15786">
        <ele>344.39999389648</ele>
        <time>2012-11-24T15:13:16Z</time>
      </trkpt>
      <trkpt lat="43.37593" lon="6.1579">
        <ele>344.39999389648</ele>
        <time>2012-11-24T15:13:25Z</time>
      </trkpt>
      <trkpt lat="43.37588" lon="6.15798">
        <ele>344.39999389648</ele>
        <time>2012-11-24T15:13:30Z</time>
      </trkpt>
      <trkpt lat="43.37592" lon="6.15827">
        <ele>346.39999389648</ele>
        <time>2012-11-24T15:13:49Z</time>
      </trkpt>
      <trkpt lat="43.37592" lon="6.15839">
        <ele>346.79998779297</ele>
        <time>2012-11-24T15:13:54Z</time>
      </trkpt>
      <trkpt lat="43.37585" lon="6.15872">
        <ele>348.60000610352</ele>
        <time>2012-11-24T15:14:07Z</time>
      </trkpt>
      <trkpt lat="43.37561" lon="6.15922">
        <ele>351.79998779297</ele>
        <time>2012-11-24T15:15:00Z</time>
      </trkpt>
      <trkpt lat="43.3754" lon="6.15953">
        <ele>354.20001220703</ele>
        <time>2012-11-24T15:15:18Z</time>
      </trkpt>
      <trkpt lat="43.37539" lon="6.15954">
        <ele>354.60000610352</ele>
        <time>2012-11-24T15:15:30Z</time>
      </trkpt>
      <trkpt lat="43.37508" lon="6.15993">
        <ele>356.79998779297</ele>
        <time>2012-11-24T15:16:01Z</time>
      </trkpt>
      <trkpt lat="43.37495" lon="6.16014">
        <ele>358.79998779297</ele>
        <time>2012-11-24T15:16:12Z</time>
      </trkpt>
      <trkpt lat="43.3746" lon="6.16045">
        <ele>360.79998779297</ele>
        <time>2012-11-24T15:16:35Z</time>
      </trkpt>
      <trkpt lat="43.37452" lon="6.16046">
        <ele>360.79998779297</ele>
        <time>2012-11-24T15:16:40Z</time>
      </trkpt>
      <trkpt lat="43.37414" lon="6.16039">
        <ele>363</ele>
        <time>2012-11-24T15:17:02Z</time>
      </trkpt>
      <trkpt lat="43.37394" lon="6.16039">
        <ele>365</ele>
        <time>2012-11-24T15:17:15Z</time>
      </trkpt>
      <trkpt lat="43.37347" lon="6.16033">
        <ele>367.20001220703</ele>
        <time>2012-11-24T15:17:46Z</time>
      </trkpt>
      <trkpt lat="43.37334" lon="6.16034">
        <ele>367.60000610352</ele>
        <time>2012-11-24T15:17:54Z</time>
      </trkpt>
      <trkpt lat="43.37281" lon="6.16044">
        <ele>370.39999389648</ele>
        <time>2012-11-24T15:18:25Z</time>
      </trkpt>
      <trkpt lat="43.3728" lon="6.16044">
        <ele>370.79998779297</ele>
        <time>2012-11-24T15:18:26Z</time>
      </trkpt>
      <trkpt lat="43.37249" lon="6.16032">
        <ele>373.20001220703</ele>
        <time>2012-11-24T15:18:49Z</time>
      </trkpt>
      <trkpt lat="43.37235" lon="6.1603">
        <ele>374.60000610352</ele>
        <time>2012-11-24T15:19:01Z</time>
      </trkpt>
      <trkpt lat="43.3722" lon="6.1602">
        <ele>375.39999389648</ele>
        <time>2012-11-24T15:19:14Z</time>
      </trkpt>
      <trkpt lat="43.37215" lon="6.16015">
        <ele>376.20001220703</ele>
        <time>2012-11-24T15:19:19Z</time>
      </trkpt>
      <trkpt lat="43.37198" lon="6.16009">
        <ele>377.39999389648</ele>
        <time>2012-11-24T15:19:33Z</time>
      </trkpt>
      <trkpt lat="43.37196" lon="6.16006">
        <ele>377.39999389648</ele>
        <time>2012-11-24T15:20:17Z</time>
      </trkpt>
      <trkpt lat="43.37196" lon="6.16005">
        <ele>379.39999389648</ele>
        <time>2012-11-24T15:21:16Z</time>
      </trkpt>
      <trkpt lat="43.37188" lon="6.16001">
        <ele>379.39999389648</ele>
        <time>2012-11-24T15:21:21Z</time>
      </trkpt>
      <trkpt lat="43.3717" lon="6.15981">
        <ele>379.39999389648</ele>
        <time>2012-11-24T15:21:36Z</time>
      </trkpt>
      <trkpt lat="43.37165" lon="6.15969">
        <ele>381.39999389648</ele>
        <time>2012-11-24T15:21:42Z</time>
      </trkpt>
      <trkpt lat="43.3715" lon="6.15943">
        <ele>381.79998779297</ele>
        <time>2012-11-24T15:21:57Z</time>
      </trkpt>
      <trkpt lat="43.3714" lon="6.15901">
        <ele>383.79998779297</ele>
        <time>2012-11-24T15:22:18Z</time>
      </trkpt>
      <trkpt lat="43.37129" lon="6.15876">
        <ele>385.39999389648</ele>
        <time>2012-11-24T15:22:32Z</time>
      </trkpt>
      <trkpt lat="43.37114" lon="6.15875">
        <ele>386.20001220703</ele>
        <time>2012-11-24T15:22:41Z</time>
      </trkpt>
      <trkpt lat="43.37106" lon="6.15886">
        <ele>387.39999389648</ele>
        <time>2012-11-24T15:23:01Z</time>
      </trkpt>
      <trkpt lat="43.37094" lon="6.15907">
        <ele>387.39999389648</ele>
        <time>2012-11-24T15:23:48Z</time>
      </trkpt>
      <trkpt lat="43.37078" lon="6.15917">
        <ele>388.39999389648</ele>
        <time>2012-11-24T15:23:58Z</time>
      </trkpt>
      <trkpt lat="43.37068" lon="6.15921">
        <ele>389.60000610352</ele>
        <time>2012-11-24T15:24:05Z</time>
      </trkpt>
      <trkpt lat="43.37057" lon="6.1592">
        <ele>389.60000610352</ele>
        <time>2012-11-24T15:24:12Z</time>
      </trkpt>
      <trkpt lat="43.37054" lon="6.15919">
        <ele>390</ele>
        <time>2012-11-24T15:24:14Z</time>
      </trkpt>
      <trkpt lat="43.37039" lon="6.15905">
        <ele>391.60000610352</ele>
        <time>2012-11-24T15:24:25Z</time>
      </trkpt>
      <trkpt lat="43.37014" lon="6.15874">
        <ele>393.60000610352</ele>
        <time>2012-11-24T15:24:46Z</time>
      </trkpt>
      <trkpt lat="43.37004" lon="6.15867">
        <ele>393.60000610352</ele>
        <time>2012-11-24T15:24:53Z</time>
      </trkpt>
      <trkpt lat="43.36959" lon="6.15851">
        <ele>396.60000610352</ele>
        <time>2012-11-24T15:25:29Z</time>
      </trkpt>
      <trkpt lat="43.36938" lon="6.15834">
        <ele>398.20001220703</ele>
        <time>2012-11-24T15:25:46Z</time>
      </trkpt>
      <trkpt lat="43.36929" lon="6.15829">
        <ele>399.79998779297</ele>
        <time>2012-11-24T15:25:52Z</time>
      </trkpt>
      <trkpt lat="43.36922" lon="6.15844">
        <ele>399.79998779297</ele>
        <time>2012-11-24T15:26:00Z</time>
      </trkpt>
      <trkpt lat="43.36925" lon="6.15873">
        <ele>400.20001220703</ele>
        <time>2012-11-24T15:26:16Z</time>
      </trkpt>
      <trkpt lat="43.36927" lon="6.15881">
        <ele>401.79998779297</ele>
        <time>2012-11-24T15:26:20Z</time>
      </trkpt>
      <trkpt lat="43.36937" lon="6.15925">
        <ele>403.79998779297</ele>
        <time>2012-11-24T15:26:42Z</time>
      </trkpt>
      <trkpt lat="43.36937" lon="6.15944">
        <ele>403.79998779297</ele>
        <time>2012-11-24T15:26:51Z</time>
      </trkpt>
      <trkpt lat="43.36934" lon="6.15953">
        <ele>404.60000610352</ele>
        <time>2012-11-24T15:26:56Z</time>
      </trkpt>
      <trkpt lat="43.36917" lon="6.16002">
        <ele>408</ele>
        <time>2012-11-24T15:27:29Z</time>
      </trkpt>
      <trkpt lat="43.36897" lon="6.16046">
        <ele>408.79998779297</ele>
        <time>2012-11-24T15:28:50Z</time>
      </trkpt>
      <trkpt lat="43.36895" lon="6.16054">
        <ele>410</ele>
        <time>2012-11-24T15:28:55Z</time>
      </trkpt>
      <trkpt lat="43.36868" lon="6.16171">
        <ele>416.20001220703</ele>
        <time>2012-11-24T15:29:54Z</time>
      </trkpt>
      <trkpt lat="43.36855" lon="6.16183">
        <ele>416.60000610352</ele>
        <time>2012-11-24T15:30:05Z</time>
      </trkpt>
      <trkpt lat="43.36835" lon="6.16184">
        <ele>418.39999389648</ele>
        <time>2012-11-24T15:30:18Z</time>
      </trkpt>
      <trkpt lat="43.36834" lon="6.1618">
        <ele>418.39999389648</ele>
        <time>2012-11-24T15:30:20Z</time>
      </trkpt>
      <trkpt lat="43.36821" lon="6.16145">
        <ele>418.39999389648</ele>
        <time>2012-11-24T15:30:43Z</time>
      </trkpt>
      <trkpt lat="43.3682" lon="6.15999">
        <ele>418.39999389648</ele>
        <time>2012-11-24T15:31:29Z</time>
      </trkpt>
      <trkpt lat="43.36814" lon="6.15933">
        <ele>418.39999389648</ele>
        <time>2012-11-24T15:31:46Z</time>
      </trkpt>
      <trkpt lat="43.36805" lon="6.15836">
        <ele>420.39999389648</ele>
        <time>2012-11-24T15:32:12Z</time>
      </trkpt>
      <trkpt lat="43.368" lon="6.15812">
        <ele>420.39999389648</ele>
        <time>2012-11-24T15:32:18Z</time>
      </trkpt>
      <trkpt lat="43.36782" lon="6.15776">
        <ele>420.39999389648</ele>
        <time>2012-11-24T15:32:29Z</time>
      </trkpt>
      <trkpt lat="43.36773" lon="6.15774">
        <ele>420.39999389648</ele>
        <time>2012-11-24T15:32:32Z</time>
      </trkpt>
      <trkpt lat="43.3677" lon="6.15777">
        <ele>420.39999389648</ele>
        <time>2012-11-24T15:32:33Z</time>
      </trkpt>
      <trkpt lat="43.36755" lon="6.1581">
        <ele>420.39999389648</ele>
        <time>2012-11-24T15:32:42Z</time>
      </trkpt>
      <trkpt lat="43.36729" lon="6.15847">
        <ele>421.60000610352</ele>
        <time>2012-11-24T15:32:53Z</time>
      </trkpt>
      <trkpt lat="43.36713" lon="6.1587">
        <ele>422.39999389648</ele>
        <time>2012-11-24T15:33:01Z</time>
      </trkpt>
      <trkpt lat="43.36698" lon="6.15882">
        <ele>422.39999389648</ele>
        <time>2012-11-24T15:33:08Z</time>
      </trkpt>
      <trkpt lat="43.36687" lon="6.15881">
        <ele>423.60000610352</ele>
        <time>2012-11-24T15:33:14Z</time>
      </trkpt>
      <trkpt lat="43.36682" lon="6.15877">
        <ele>424.39999389648</ele>
        <time>2012-11-24T15:33:17Z</time>
      </trkpt>
      <trkpt lat="43.36673" lon="6.15854">
        <ele>424.39999389648</ele>
        <time>2012-11-24T15:33:28Z</time>
      </trkpt>
      <trkpt lat="43.36656" lon="6.15811">
        <ele>424.39999389648</ele>
        <time>2012-11-24T15:33:45Z</time>
      </trkpt>
      <trkpt lat="43.36644" lon="6.15801">
        <ele>424.39999389648</ele>
        <time>2012-11-24T15:33:51Z</time>
      </trkpt>
      <trkpt lat="43.3661" lon="6.15776">
        <ele>426.20001220703</ele>
        <time>2012-11-24T15:34:08Z</time>
      </trkpt>
      <trkpt lat="43.36591" lon="6.15772">
        <ele>426.60000610352</ele>
        <time>2012-11-24T15:34:16Z</time>
      </trkpt>
      <trkpt lat="43.36562" lon="6.15784">
        <ele>426.60000610352</ele>
        <time>2012-11-24T15:34:28Z</time>
      </trkpt>
      <trkpt lat="43.36551" lon="6.15781">
        <ele>427</ele>
        <time>2012-11-24T15:34:33Z</time>
      </trkpt>
      <trkpt lat="43.36546" lon="6.15776">
        <ele>428.20001220703</ele>
        <time>2012-11-24T15:34:36Z</time>
      </trkpt>
      <trkpt lat="43.36529" lon="6.15699">
        <ele>429.39999389648</ele>
        <time>2012-11-24T15:35:02Z</time>
      </trkpt>
      <trkpt lat="43.36517" lon="6.15609">
        <ele>430.60000610352</ele>
        <time>2012-11-24T15:35:30Z</time>
      </trkpt>
      <trkpt lat="43.36511" lon="6.15403">
        <ele>434.60000610352</ele>
        <time>2012-11-24T15:36:33Z</time>
      </trkpt>
      <trkpt lat="43.3651" lon="6.15396">
        <ele>435</ele>
        <time>2012-11-24T15:36:35Z</time>
      </trkpt>
      <trkpt lat="43.36498" lon="6.15352">
        <ele>436.60000610352</ele>
        <time>2012-11-24T15:36:52Z</time>
      </trkpt>
      <trkpt lat="43.36481" lon="6.15329">
        <ele>438.79998779297</ele>
        <time>2012-11-24T15:37:09Z</time>
      </trkpt>
      <trkpt lat="43.3648" lon="6.15324">
        <ele>438.79998779297</ele>
        <time>2012-11-24T15:37:11Z</time>
      </trkpt>
      <trkpt lat="43.36487" lon="6.15296">
        <ele>438.79998779297</ele>
        <time>2012-11-24T15:37:17Z</time>
      </trkpt>
      <trkpt lat="43.36491" lon="6.15283">
        <ele>438.79998779297</ele>
        <time>2012-11-24T15:37:19Z</time>
      </trkpt>
      <trkpt lat="43.36499" lon="6.15267">
        <ele>438.79998779297</ele>
        <time>2012-11-24T15:37:22Z</time>
      </trkpt>
      <trkpt lat="43.36513" lon="6.15248">
        <ele>438.79998779297</ele>
        <time>2012-11-24T15:37:27Z</time>
      </trkpt>
      <trkpt lat="43.3654" lon="6.15228">
        <ele>436.20001220703</ele>
        <time>2012-11-24T15:37:36Z</time>
      </trkpt>
      <trkpt lat="43.36549" lon="6.15216">
        <ele>435</ele>
        <time>2012-11-24T15:37:39Z</time>
      </trkpt>
      <trkpt lat="43.36555" lon="6.15159">
        <ele>433.20001220703</ele>
        <time>2012-11-24T15:37:49Z</time>
      </trkpt>
      <trkpt lat="43.36552" lon="6.15097">
        <ele>431.39999389648</ele>
        <time>2012-11-24T15:38:00Z</time>
      </trkpt>
      <trkpt lat="43.36554" lon="6.15078">
        <ele>430</ele>
        <time>2012-11-24T15:38:04Z</time>
      </trkpt>
      <trkpt lat="43.36555" lon="6.15057">
        <ele>430</ele>
        <time>2012-11-24T15:38:08Z</time>
      </trkpt>
      <trkpt lat="43.36555" lon="6.14989">
        <ele>430</ele>
        <time>2012-11-24T15:38:22Z</time>
      </trkpt>
      <trkpt lat="43.36547" lon="6.14938">
        <ele>430</ele>
        <time>2012-11-24T15:38:33Z</time>
      </trkpt>
      <trkpt lat="43.36537" lon="6.14871">
        <ele>429.20001220703</ele>
        <time>2012-11-24T15:38:47Z</time>
      </trkpt>
      <trkpt lat="43.36535" lon="6.14855">
        <ele>428</ele>
        <time>2012-11-24T15:38:50Z</time>
      </trkpt>
      <trkpt lat="43.36515" lon="6.14776">
        <ele>423.60000610352</ele>
        <time>2012-11-24T15:39:02Z</time>
      </trkpt>
      <trkpt lat="43.36515" lon="6.14769">
        <ele>422.79998779297</ele>
        <time>2012-11-24T15:39:03Z</time>
      </trkpt>
      <trkpt lat="43.36522" lon="6.14721">
        <ele>418.60000610352</ele>
        <time>2012-11-24T15:39:10Z</time>
      </trkpt>
      <trkpt lat="43.3652" lon="6.14673">
        <ele>414.20001220703</ele>
        <time>2012-11-24T15:39:17Z</time>
      </trkpt>
      <trkpt lat="43.36526" lon="6.14651">
        <ele>412.39999389648</ele>
        <time>2012-11-24T15:39:20Z</time>
      </trkpt>
      <trkpt lat="43.36531" lon="6.14596">
        <ele>408.20001220703</ele>
        <time>2012-11-24T15:39:29Z</time>
      </trkpt>
      <trkpt lat="43.36533" lon="6.14543">
        <ele>405</ele>
        <time>2012-11-24T15:39:35Z</time>
      </trkpt>
      <trkpt lat="43.3653" lon="6.14503">
        <ele>402.60000610352</ele>
        <time>2012-11-24T15:39:40Z</time>
      </trkpt>
      <trkpt lat="43.36543" lon="6.14461">
        <ele>401.60000610352</ele>
        <time>2012-11-24T15:39:48Z</time>
      </trkpt>
      <trkpt lat="43.36547" lon="6.14443">
        <ele>400.39999389648</ele>
        <time>2012-11-24T15:39:51Z</time>
      </trkpt>
      <trkpt lat="43.36544" lon="6.14421">
        <ele>400</ele>
        <time>2012-11-24T15:39:55Z</time>
      </trkpt>
      <trkpt lat="43.36533" lon="6.14386">
        <ele>400</ele>
        <time>2012-11-24T15:40:01Z</time>
      </trkpt>
      <trkpt lat="43.36522" lon="6.14347">
        <ele>398.39999389648</ele>
        <time>2012-11-24T15:40:07Z</time>
      </trkpt>
      <trkpt lat="43.36523" lon="6.14312">
        <ele>398</ele>
        <time>2012-11-24T15:40:12Z</time>
      </trkpt>
      <trkpt lat="43.36533" lon="6.1428">
        <ele>398</ele>
        <time>2012-11-24T15:40:25Z</time>
      </trkpt>
      <trkpt lat="43.36544" lon="6.14204">
        <ele>395.60000610352</ele>
        <time>2012-11-24T15:40:46Z</time>
      </trkpt>
      <trkpt lat="43.36537" lon="6.14145">
        <ele>393.60000610352</ele>
        <time>2012-11-24T15:40:58Z</time>
      </trkpt>
      <trkpt lat="43.36537" lon="6.14143">
        <ele>393.60000610352</ele>
        <time>2012-11-24T15:41:44Z</time>
      </trkpt>
      <trkpt lat="43.36535" lon="6.1413">
        <ele>392.60000610352</ele>
        <time>2012-11-24T15:41:48Z</time>
      </trkpt>
      <trkpt lat="43.36524" lon="6.14088">
        <ele>391</ele>
        <time>2012-11-24T15:41:59Z</time>
      </trkpt>
      <trkpt lat="43.36526" lon="6.14069">
        <ele>389</ele>
        <time>2012-11-24T15:42:05Z</time>
      </trkpt>
      <trkpt lat="43.36532" lon="6.13999">
        <ele>386.79998779297</ele>
        <time>2012-11-24T15:42:20Z</time>
      </trkpt>
      <trkpt lat="43.36525" lon="6.13936">
        <ele>384.79998779297</ele>
        <time>2012-11-24T15:42:32Z</time>
      </trkpt>
      <trkpt lat="43.36533" lon="6.13859">
        <ele>382.39999389648</ele>
        <time>2012-11-24T15:42:42Z</time>
      </trkpt>
      <trkpt lat="43.36535" lon="6.13824">
        <ele>382</ele>
        <time>2012-11-24T15:42:46Z</time>
      </trkpt>
      <trkpt lat="43.36546" lon="6.13768">
        <ele>380.20001220703</ele>
        <time>2012-11-24T15:42:52Z</time>
      </trkpt>
      <trkpt lat="43.36568" lon="6.13622">
        <ele>373.60000610352</ele>
        <time>2012-11-24T15:43:04Z</time>
      </trkpt>
      <trkpt lat="43.36578" lon="6.13585">
        <ele>371.39999389648</ele>
        <time>2012-11-24T15:43:07Z</time>
      </trkpt>
      <trkpt lat="43.36595" lon="6.13525">
        <ele>366.39999389648</ele>
        <time>2012-11-24T15:43:18Z</time>
      </trkpt>
      <trkpt lat="43.36602" lon="6.13486">
        <ele>364.79998779297</ele>
        <time>2012-11-24T15:43:27Z</time>
      </trkpt>
      <trkpt lat="43.36602" lon="6.13481">
        <ele>364.39999389648</ele>
        <time>2012-11-24T15:43:28Z</time>
      </trkpt>
      <trkpt lat="43.36635" lon="6.13355">
        <ele>362.39999389648</ele>
        <time>2012-11-24T15:43:46Z</time>
      </trkpt>
      <trkpt lat="43.36644" lon="6.13315">
        <ele>361.79998779297</ele>
        <time>2012-11-24T15:43:51Z</time>
      </trkpt>
      <trkpt lat="43.36653" lon="6.1327">
        <ele>360.20001220703</ele>
        <time>2012-11-24T15:43:56Z</time>
      </trkpt>
      <trkpt lat="43.36659" lon="6.132">
        <ele>357.20001220703</ele>
        <time>2012-11-24T15:44:03Z</time>
      </trkpt>
      <trkpt lat="43.36663" lon="6.13165">
        <ele>355.39999389648</ele>
        <time>2012-11-24T15:44:07Z</time>
      </trkpt>
      <trkpt lat="43.36668" lon="6.13151">
        <ele>354.60000610352</ele>
        <time>2012-11-24T15:44:09Z</time>
      </trkpt>
      <trkpt lat="43.36695" lon="6.13135">
        <ele>351.39999389648</ele>
        <time>2012-11-24T15:44:14Z</time>
      </trkpt>
      <trkpt lat="43.36703" lon="6.13119">
        <ele>351</ele>
        <time>2012-11-24T15:44:16Z</time>
      </trkpt>
      <trkpt lat="43.36723" lon="6.13059">
        <ele>347.60000610352</ele>
        <time>2012-11-24T15:44:22Z</time>
      </trkpt>
      <trkpt lat="43.36763" lon="6.12989">
        <ele>344.60000610352</ele>
        <time>2012-11-24T15:44:30Z</time>
      </trkpt>
      <trkpt lat="43.36829" lon="6.12917">
        <ele>339.20001220703</ele>
        <time>2012-11-24T15:44:40Z</time>
      </trkpt>
      <trkpt lat="43.36868" lon="6.12882">
        <ele>335.60000610352</ele>
        <time>2012-11-24T15:44:50Z</time>
      </trkpt>
      <trkpt lat="43.36892" lon="6.1286">
        <ele>333.79998779297</ele>
        <time>2012-11-24T15:44:54Z</time>
      </trkpt>
      <trkpt lat="43.36909" lon="6.1284">
        <ele>333</ele>
        <time>2012-11-24T15:44:57Z</time>
      </trkpt>
      <trkpt lat="43.36932" lon="6.12797">
        <ele>331</ele>
        <time>2012-11-24T15:45:02Z</time>
      </trkpt>
      <trkpt lat="43.36995" lon="6.12661">
        <ele>327.60000610352</ele>
        <time>2012-11-24T15:45:17Z</time>
      </trkpt>
      <trkpt lat="43.37035" lon="6.12577">
        <ele>325.60000610352</ele>
        <time>2012-11-24T15:45:27Z</time>
      </trkpt>
      <trkpt lat="43.37057" lon="6.12548">
        <ele>325.60000610352</ele>
        <time>2012-11-24T15:45:31Z</time>
      </trkpt>
      <trkpt lat="43.37081" lon="6.12527">
        <ele>323.79998779297</ele>
        <time>2012-11-24T15:45:35Z</time>
      </trkpt>
      <trkpt lat="43.37088" lon="6.12521">
        <ele>323.39999389648</ele>
        <time>2012-11-24T15:45:36Z</time>
      </trkpt>
      <trkpt lat="43.37113" lon="6.12488">
        <ele>323.39999389648</ele>
        <time>2012-11-24T15:45:41Z</time>
      </trkpt>
      <trkpt lat="43.37129" lon="6.12454">
        <ele>323.39999389648</ele>
        <time>2012-11-24T15:45:46Z</time>
      </trkpt>
      <trkpt lat="43.37152" lon="6.12404">
        <ele>323.39999389648</ele>
        <time>2012-11-24T15:45:54Z</time>
      </trkpt>
      <trkpt lat="43.3719" lon="6.12353">
        <ele>323.39999389648</ele>
        <time>2012-11-24T15:46:07Z</time>
      </trkpt>
      <trkpt lat="43.37197" lon="6.12342">
        <ele>323.39999389648</ele>
        <time>2012-11-24T15:46:11Z</time>
      </trkpt>
      <trkpt lat="43.37212" lon="6.12315">
        <ele>323.39999389648</ele>
        <time>2012-11-24T15:46:21Z</time>
      </trkpt>
      <trkpt lat="43.37234" lon="6.12259">
        <ele>327.60000610352</ele>
        <time>2012-11-24T15:46:42Z</time>
      </trkpt>
      <trkpt lat="43.37258" lon="6.12197">
        <ele>330.20001220703</ele>
        <time>2012-11-24T15:47:12Z</time>
      </trkpt>
      <trkpt lat="43.37261" lon="6.12191">
        <ele>331.39999389648</ele>
        <time>2012-11-24T15:47:15Z</time>
      </trkpt>
      <trkpt lat="43.37283" lon="6.12154">
        <ele>334</ele>
        <time>2012-11-24T15:47:38Z</time>
      </trkpt>
      <trkpt lat="43.37287" lon="6.1215">
        <ele>334.39999389648</ele>
        <time>2012-11-24T15:47:42Z</time>
      </trkpt>
      <trkpt lat="43.37302" lon="6.12136">
        <ele>338</ele>
        <time>2012-11-24T15:48:01Z</time>
      </trkpt>
      <trkpt lat="43.37314" lon="6.12129">
        <ele>340</ele>
        <time>2012-11-24T15:48:14Z</time>
      </trkpt>
      <trkpt lat="43.37314" lon="6.12128">
        <ele>340</ele>
        <time>2012-11-24T15:48:26Z</time>
      </trkpt>
      <trkpt lat="43.37369" lon="6.12091">
        <ele>345.39999389648</ele>
        <time>2012-11-24T15:49:42Z</time>
      </trkpt>
      <trkpt lat="43.37379" lon="6.12088">
        <ele>346.20001220703</ele>
        <time>2012-11-24T15:49:52Z</time>
      </trkpt>
      <trkpt lat="43.37415" lon="6.12089">
        <ele>348.39999389648</ele>
        <time>2012-11-24T15:50:25Z</time>
      </trkpt>
      <trkpt lat="43.37429" lon="6.12083">
        <ele>350.39999389648</ele>
        <time>2012-11-24T15:50:40Z</time>
      </trkpt>
      <trkpt lat="43.37429" lon="6.12081">
        <ele>350.39999389648</ele>
        <time>2012-11-24T15:52:15Z</time>
      </trkpt>
      <trkpt lat="43.37448" lon="6.12082">
        <ele>350.39999389648</ele>
        <time>2012-11-24T15:52:50Z</time>
      </trkpt>
      <trkpt lat="43.37471" lon="6.12073">
        <ele>349.60000610352</ele>
        <time>2012-11-24T15:52:55Z</time>
      </trkpt>
      <trkpt lat="43.37476" lon="6.1207">
        <ele>349.20001220703</ele>
        <time>2012-11-24T15:52:56Z</time>
      </trkpt>
      <trkpt lat="43.37513" lon="6.1204">
        <ele>344</ele>
        <time>2012-11-24T15:53:03Z</time>
      </trkpt>
      <trkpt lat="43.37554" lon="6.11989">
        <ele>338</ele>
        <time>2012-11-24T15:53:09Z</time>
      </trkpt>
      <trkpt lat="43.37563" lon="6.11983">
        <ele>336.79998779297</ele>
        <time>2012-11-24T15:53:10Z</time>
      </trkpt>
      <trkpt lat="43.37595" lon="6.11956">
        <ele>330.20001220703</ele>
        <time>2012-11-24T15:53:15Z</time>
      </trkpt>
      <trkpt lat="43.376" lon="6.11949">
        <ele>329.20001220703</ele>
        <time>2012-11-24T15:53:16Z</time>
      </trkpt>
      <trkpt lat="43.37644" lon="6.11881">
        <ele>322.20001220703</ele>
        <time>2012-11-24T15:53:23Z</time>
      </trkpt>
      <trkpt lat="43.37679" lon="6.11831">
        <ele>316.39999389648</ele>
        <time>2012-11-24T15:53:30Z</time>
      </trkpt>
      <trkpt lat="43.37688" lon="6.11804">
        <ele>314</ele>
        <time>2012-11-24T15:53:34Z</time>
      </trkpt>
      <trkpt lat="43.37708" lon="6.11756">
        <ele>310.20001220703</ele>
        <time>2012-11-24T15:53:39Z</time>
      </trkpt>
      <trkpt lat="43.37729" lon="6.11719">
        <ele>308.60000610352</ele>
        <time>2012-11-24T15:53:43Z</time>
      </trkpt>
      <trkpt lat="43.37767" lon="6.11637">
        <ele>305.39999389648</ele>
        <time>2012-11-24T15:53:53Z</time>
      </trkpt>
      <trkpt lat="43.37787" lon="6.11605">
        <ele>303.60000610352</ele>
        <time>2012-11-24T15:53:57Z</time>
      </trkpt>
      <trkpt lat="43.37817" lon="6.11571">
        <ele>301.60000610352</ele>
        <time>2012-11-24T15:54:02Z</time>
      </trkpt>
      <trkpt lat="43.37842" lon="6.11509">
        <ele>298.79998779297</ele>
        <time>2012-11-24T15:54:10Z</time>
      </trkpt>
      <trkpt lat="43.37852" lon="6.11484">
        <ele>297.39999389648</ele>
        <time>2012-11-24T15:54:13Z</time>
      </trkpt>
      <trkpt lat="43.37861" lon="6.11473">
        <ele>297</ele>
        <time>2012-11-24T15:54:15Z</time>
      </trkpt>
      <trkpt lat="43.37883" lon="6.1147">
        <ele>295.39999389648</ele>
        <time>2012-11-24T15:54:19Z</time>
      </trkpt>
      <trkpt lat="43.37896" lon="6.11463">
        <ele>295.39999389648</ele>
        <time>2012-11-24T15:54:22Z</time>
      </trkpt>
      <trkpt lat="43.37918" lon="6.11441">
        <ele>295.39999389648</ele>
        <time>2012-11-24T15:54:28Z</time>
      </trkpt>
      <trkpt lat="43.37993" lon="6.11339">
        <ele>295.39999389648</ele>
        <time>2012-11-24T15:54:50Z</time>
      </trkpt>
      <trkpt lat="43.3805" lon="6.11219">
        <ele>295.39999389648</ele>
        <time>2012-11-24T15:55:12Z</time>
      </trkpt>
      <trkpt lat="43.38062" lon="6.11203">
        <ele>295.39999389648</ele>
        <time>2012-11-24T15:55:16Z</time>
      </trkpt>
      <trkpt lat="43.38136" lon="6.11121">
        <ele>291.79998779297</ele>
        <time>2012-11-24T15:55:31Z</time>
      </trkpt>
      <trkpt lat="43.38142" lon="6.11114">
        <ele>291.20001220703</ele>
        <time>2012-11-24T15:55:32Z</time>
      </trkpt>
      <trkpt lat="43.38151" lon="6.11098">
        <ele>290.39999389648</ele>
        <time>2012-11-24T15:55:34Z</time>
      </trkpt>
      <trkpt lat="43.38163" lon="6.11062">
        <ele>289</ele>
        <time>2012-11-24T15:55:38Z</time>
      </trkpt>
      <trkpt lat="43.38194" lon="6.10906">
        <ele>284.60000610352</ele>
        <time>2012-11-24T15:55:58Z</time>
      </trkpt>
      <trkpt lat="43.38197" lon="6.10865">
        <ele>284.20001220703</ele>
        <time>2012-11-24T15:56:08Z</time>
      </trkpt>
      <trkpt lat="43.38201" lon="6.10841">
        <ele>282.39999389648</ele>
        <time>2012-11-24T15:56:13Z</time>
      </trkpt>
      <trkpt lat="43.38235" lon="6.10724">
        <ele>282.39999389648</ele>
        <time>2012-11-24T15:56:33Z</time>
      </trkpt>
      <trkpt lat="43.38298" lon="6.10593">
        <ele>278.39999389648</ele>
        <time>2012-11-24T15:56:52Z</time>
      </trkpt>
      <trkpt lat="43.3833" lon="6.10508">
        <ele>276.20001220703</ele>
        <time>2012-11-24T15:57:04Z</time>
      </trkpt>
      <trkpt lat="43.38336" lon="6.10494">
        <ele>276.20001220703</ele>
        <time>2012-11-24T15:57:06Z</time>
      </trkpt>
      <trkpt lat="43.38352" lon="6.10482">
        <ele>276.20001220703</ele>
        <time>2012-11-24T15:57:09Z</time>
      </trkpt>
      <trkpt lat="43.38393" lon="6.10478">
        <ele>276.20001220703</ele>
        <time>2012-11-24T15:57:16Z</time>
      </trkpt>
      <trkpt lat="43.38421" lon="6.10473">
        <ele>276.20001220703</ele>
        <time>2012-11-24T15:57:21Z</time>
      </trkpt>
      <trkpt lat="43.38436" lon="6.10467">
        <ele>276.20001220703</ele>
        <time>2012-11-24T15:57:24Z</time>
      </trkpt>
      <trkpt lat="43.38448" lon="6.10458">
        <ele>276.20001220703</ele>
        <time>2012-11-24T15:57:27Z</time>
      </trkpt>
      <trkpt lat="43.38474" lon="6.10435">
        <ele>279.79998779297</ele>
        <time>2012-11-24T15:57:36Z</time>
      </trkpt>
      <trkpt lat="43.38481" lon="6.10428">
        <ele>282</ele>
        <time>2012-11-24T15:57:41Z</time>
      </trkpt>
      <trkpt lat="43.38493" lon="6.10412">
        <ele>285</ele>
        <time>2012-11-24T15:57:54Z</time>
      </trkpt>
      <trkpt lat="43.38503" lon="6.10401">
        <ele>287</ele>
        <time>2012-11-24T15:58:05Z</time>
      </trkpt>
      <trkpt lat="43.38504" lon="6.104">
        <ele>287</ele>
        <time>2012-11-24T15:58:22Z</time>
      </trkpt>
      <trkpt lat="43.38512" lon="6.10383">
        <ele>288.20001220703</ele>
        <time>2012-11-24T15:58:32Z</time>
      </trkpt>
      <trkpt lat="43.38527" lon="6.10367">
        <ele>289.60000610352</ele>
        <time>2012-11-24T15:58:45Z</time>
      </trkpt>
      <trkpt lat="43.38528" lon="6.10365">
        <ele>290.39999389648</ele>
        <time>2012-11-24T15:58:47Z</time>
      </trkpt>
      <trkpt lat="43.3853" lon="6.10364">
        <ele>291.20001220703</ele>
        <time>2012-11-24T15:58:51Z</time>
      </trkpt>
      <trkpt lat="43.3853" lon="6.10364">
        <ele>291.20001220703</ele>
        <time>2012-11-24T15:59:04Z</time>
      </trkpt>
      <trkpt lat="43.38575" lon="6.10325">
        <ele>293.39999389648</ele>
        <time>2012-11-24T16:00:02Z</time>
      </trkpt>
      <trkpt lat="43.38601" lon="6.10312">
        <ele>293.39999389648</ele>
        <time>2012-11-24T16:00:12Z</time>
      </trkpt>
      <trkpt lat="43.38618" lon="6.10311">
        <ele>293.39999389648</ele>
        <time>2012-11-24T16:00:18Z</time>
      </trkpt>
      <trkpt lat="43.38661" lon="6.10309">
        <ele>294.60000610352</ele>
        <time>2012-11-24T16:00:33Z</time>
      </trkpt>
      <trkpt lat="43.38667" lon="6.10305">
        <ele>295.39999389648</ele>
        <time>2012-11-24T16:00:35Z</time>
      </trkpt>
      <trkpt lat="43.38678" lon="6.1028">
        <ele>295.39999389648</ele>
        <time>2012-11-24T16:00:42Z</time>
      </trkpt>
      <trkpt lat="43.38686" lon="6.10213">
        <ele>295.39999389648</ele>
        <time>2012-11-24T16:01:00Z</time>
      </trkpt>
      <trkpt lat="43.387" lon="6.10208">
        <ele>296.20001220703</ele>
        <time>2012-11-24T16:01:07Z</time>
      </trkpt>
      <trkpt lat="43.38811" lon="6.10166">
        <ele>303.60000610352</ele>
        <time>2012-11-24T16:01:58Z</time>
      </trkpt>
      <trkpt lat="43.3882" lon="6.10166">
        <ele>303.60000610352</ele>
        <time>2012-11-24T16:02:03Z</time>
      </trkpt>
      <trkpt lat="43.38826" lon="6.10175">
        <ele>303.60000610352</ele>
        <time>2012-11-24T16:02:09Z</time>
      </trkpt>
      <trkpt lat="43.38826" lon="6.1018">
        <ele>303.60000610352</ele>
        <time>2012-11-24T16:02:11Z</time>
      </trkpt>
      <trkpt lat="43.38819" lon="6.10196">
        <ele>304</ele>
        <time>2012-11-24T16:02:17Z</time>
      </trkpt>
      <trkpt lat="43.38818" lon="6.1021">
        <ele>305.60000610352</ele>
        <time>2012-11-24T16:02:21Z</time>
      </trkpt>
      <trkpt lat="43.38824" lon="6.10248">
        <ele>305.60000610352</ele>
        <time>2012-11-24T16:02:33Z</time>
      </trkpt>
      <trkpt lat="43.38831" lon="6.10299">
        <ele>304.39999389648</ele>
        <time>2012-11-24T16:02:43Z</time>
      </trkpt>
      <trkpt lat="43.38831" lon="6.1034">
        <ele>303.39999389648</ele>
        <time>2012-11-24T16:02:50Z</time>
      </trkpt>
      <trkpt lat="43.38832" lon="6.10395">
        <ele>302.60000610352</ele>
        <time>2012-11-24T16:03:00Z</time>
      </trkpt>
      <trkpt lat="43.38825" lon="6.10475">
        <ele>299.20001220703</ele>
        <time>2012-11-24T16:03:11Z</time>
      </trkpt>
      <trkpt lat="43.3878" lon="6.10696">
        <ele>290.79998779297</ele>
        <time>2012-11-24T16:03:51Z</time>
      </trkpt>
      <trkpt lat="43.38772" lon="6.10746">
        <ele>290.39999389648</ele>
        <time>2012-11-24T16:04:00Z</time>
      </trkpt>
      <trkpt lat="43.38749" lon="6.10807">
        <ele>288.79998779297</ele>
        <time>2012-11-24T16:04:17Z</time>
      </trkpt>
      <trkpt lat="43.38742" lon="6.10829">
        <ele>288.79998779297</ele>
        <time>2012-11-24T16:04:23Z</time>
      </trkpt>
      <trkpt lat="43.38725" lon="6.10896">
        <ele>288.79998779297</ele>
        <time>2012-11-24T16:04:38Z</time>
      </trkpt>
      <trkpt lat="43.38709" lon="6.11056">
        <ele>288.79998779297</ele>
        <time>2012-11-24T16:05:12Z</time>
      </trkpt>
      <trkpt lat="43.38708" lon="6.11083">
        <ele>288.79998779297</ele>
        <time>2012-11-24T16:05:19Z</time>
      </trkpt>
      <trkpt lat="43.38712" lon="6.11101">
        <ele>288.79998779297</ele>
        <time>2012-11-24T16:05:24Z</time>
      </trkpt>
      <trkpt lat="43.38723" lon="6.11107">
        <ele>288.79998779297</ele>
        <time>2012-11-24T16:05:28Z</time>
      </trkpt>
      <trkpt lat="43.38773" lon="6.11121">
        <ele>288.79998779297</ele>
        <time>2012-11-24T16:05:42Z</time>
      </trkpt>
      <trkpt lat="43.38792" lon="6.11132">
        <ele>288.79998779297</ele>
        <time>2012-11-24T16:05:47Z</time>
      </trkpt>
      <trkpt lat="43.38828" lon="6.11158">
        <ele>288.79998779297</ele>
        <time>2012-11-24T16:05:57Z</time>
      </trkpt>
      <trkpt lat="43.38853" lon="6.1117">
        <ele>287.39999389648</ele>
        <time>2012-11-24T16:06:03Z</time>
      </trkpt>
      <trkpt lat="43.38907" lon="6.11179">
        <ele>284.60000610352</ele>
        <time>2012-11-24T16:06:15Z</time>
      </trkpt>
      <trkpt lat="43.38949" lon="6.11194">
        <ele>284.60000610352</ele>
        <time>2012-11-24T16:06:26Z</time>
      </trkpt>
      <trkpt lat="43.38979" lon="6.1119">
        <ele>286.79998779297</ele>
        <time>2012-11-24T16:06:41Z</time>
      </trkpt>
      <trkpt lat="43.38998" lon="6.11185">
        <ele>289.60000610352</ele>
        <time>2012-11-24T16:06:54Z</time>
      </trkpt>
      <trkpt lat="43.39006" lon="6.11188">
        <ele>291.20001220703</ele>
        <time>2012-11-24T16:06:59Z</time>
      </trkpt>
      <trkpt lat="43.39014" lon="6.11192">
        <ele>291.20001220703</ele>
        <time>2012-11-24T16:07:06Z</time>
      </trkpt>
      <trkpt lat="43.39015" lon="6.11193">
        <ele>292</ele>
        <time>2012-11-24T16:07:09Z</time>
      </trkpt>
      <trkpt lat="43.39015" lon="6.11193">
        <ele>293.39999389648</ele>
        <time>2012-11-24T16:07:29Z</time>
      </trkpt>
      <trkpt lat="43.39029" lon="6.11209">
        <ele>293.39999389648</ele>
        <time>2012-11-24T16:07:51Z</time>
      </trkpt>
      <trkpt lat="43.39038" lon="6.11231">
        <ele>295.39999389648</ele>
        <time>2012-11-24T16:08:02Z</time>
      </trkpt>
      <trkpt lat="43.39054" lon="6.11247">
        <ele>295.39999389648</ele>
        <time>2012-11-24T16:08:13Z</time>
      </trkpt>
      <trkpt lat="43.39062" lon="6.1126">
        <ele>295.39999389648</ele>
        <time>2012-11-24T16:08:19Z</time>
      </trkpt>
      <trkpt lat="43.39076" lon="6.11287">
        <ele>295.39999389648</ele>
        <time>2012-11-24T16:08:26Z</time>
      </trkpt>
      <trkpt lat="43.39087" lon="6.11296">
        <ele>295.39999389648</ele>
        <time>2012-11-24T16:08:30Z</time>
      </trkpt>
      <trkpt lat="43.39093" lon="6.11286">
        <ele>295.39999389648</ele>
        <time>2012-11-24T16:08:33Z</time>
      </trkpt>
      <trkpt lat="43.39101" lon="6.11269">
        <ele>293.79998779297</ele>
        <time>2012-11-24T16:08:37Z</time>
      </trkpt>
      <trkpt lat="43.39103" lon="6.11262">
        <ele>293.39999389648</ele>
        <time>2012-11-24T16:08:39Z</time>
      </trkpt>
      <trkpt lat="43.39112" lon="6.11171">
        <ele>293.39999389648</ele>
        <time>2012-11-24T16:08:58Z</time>
      </trkpt>
      <trkpt lat="43.39129" lon="6.11164">
        <ele>290.39999389648</ele>
        <time>2012-11-24T16:09:08Z</time>
      </trkpt>
      <trkpt lat="43.39135" lon="6.11159">
        <ele>289.39999389648</ele>
        <time>2012-11-24T16:09:10Z</time>
      </trkpt>
      <trkpt lat="43.39138" lon="6.11149">
        <ele>288.60000610352</ele>
        <time>2012-11-24T16:09:12Z</time>
      </trkpt>
      <trkpt lat="43.3914" lon="6.11122">
        <ele>286.79998779297</ele>
        <time>2012-11-24T16:09:16Z</time>
      </trkpt>
      <trkpt lat="43.39145" lon="6.11074">
        <ele>286</ele>
        <time>2012-11-24T16:09:23Z</time>
      </trkpt>
      <trkpt lat="43.39143" lon="6.11057">
        <ele>284.79998779297</ele>
        <time>2012-11-24T16:09:26Z</time>
      </trkpt>
      <trkpt lat="43.3915" lon="6.11024">
        <ele>284.79998779297</ele>
        <time>2012-11-24T16:09:32Z</time>
      </trkpt>
      <trkpt lat="43.39149" lon="6.1099">
        <ele>284.79998779297</ele>
        <time>2012-11-24T16:09:39Z</time>
      </trkpt>
      <trkpt lat="43.39162" lon="6.10971">
        <ele>284.79998779297</ele>
        <time>2012-11-24T16:09:45Z</time>
      </trkpt>
      <trkpt lat="43.39172" lon="6.10963">
        <ele>282.60000610352</ele>
        <time>2012-11-24T16:09:50Z</time>
      </trkpt>
      <trkpt lat="43.39191" lon="6.10931">
        <ele>282.20001220703</ele>
        <time>2012-11-24T16:10:00Z</time>
      </trkpt>
      <trkpt lat="43.39201" lon="6.10926">
        <ele>280.60000610352</ele>
        <time>2012-11-24T16:10:04Z</time>
      </trkpt>
      <trkpt lat="43.39206" lon="6.10919">
        <ele>280.60000610352</ele>
        <time>2012-11-24T16:10:07Z</time>
      </trkpt>
      <trkpt lat="43.39223" lon="6.10892">
        <ele>280.60000610352</ele>
        <time>2012-11-24T16:10:15Z</time>
      </trkpt>
      <trkpt lat="43.39228" lon="6.10873">
        <ele>280.60000610352</ele>
        <time>2012-11-24T16:10:19Z</time>
      </trkpt>
      <trkpt lat="43.39218" lon="6.10787">
        <ele>278.60000610352</ele>
        <time>2012-11-24T16:10:34Z</time>
      </trkpt>
      <trkpt lat="43.39219" lon="6.1074">
        <ele>278</ele>
        <time>2012-11-24T16:10:47Z</time>
      </trkpt>
      <trkpt lat="43.39212" lon="6.10719">
        <ele>278</ele>
        <time>2012-11-24T16:10:53Z</time>
      </trkpt>
      <trkpt lat="43.39187" lon="6.10688">
        <ele>276.79998779297</ele>
        <time>2012-11-24T16:11:00Z</time>
      </trkpt>
      <trkpt lat="43.39183" lon="6.10679">
        <ele>275.79998779297</ele>
        <time>2012-11-24T16:11:02Z</time>
      </trkpt>
      <trkpt lat="43.39191" lon="6.10649">
        <ele>275.79998779297</ele>
        <time>2012-11-24T16:11:08Z</time>
      </trkpt>
      <trkpt lat="43.39203" lon="6.10634">
        <ele>275.79998779297</ele>
        <time>2012-11-24T16:11:12Z</time>
      </trkpt>
      <trkpt lat="43.39233" lon="6.10606">
        <ele>275.79998779297</ele>
        <time>2012-11-24T16:11:22Z</time>
      </trkpt>
      <trkpt lat="43.39248" lon="6.10596">
        <ele>275.79998779297</ele>
        <time>2012-11-24T16:11:27Z</time>
      </trkpt>
      <trkpt lat="43.3926" lon="6.1058">
        <ele>275.79998779297</ele>
        <time>2012-11-24T16:11:31Z</time>
      </trkpt>
      <trkpt lat="43.39293" lon="6.10494">
        <ele>275.79998779297</ele>
        <time>2012-11-24T16:11:46Z</time>
      </trkpt>
      <trkpt lat="43.39295" lon="6.10488">
        <ele>275.79998779297</ele>
        <time>2012-11-24T16:11:47Z</time>
      </trkpt>
      <trkpt lat="43.39324" lon="6.10437">
        <ele>273.39999389648</ele>
        <time>2012-11-24T16:11:56Z</time>
      </trkpt>
      <trkpt lat="43.3934" lon="6.1042">
        <ele>273</ele>
        <time>2012-11-24T16:12:00Z</time>
      </trkpt>
      <trkpt lat="43.39358" lon="6.1042">
        <ele>271.39999389648</ele>
        <time>2012-11-24T16:12:04Z</time>
      </trkpt>
      <trkpt lat="43.39368" lon="6.10405">
        <ele>271.39999389648</ele>
        <time>2012-11-24T16:12:07Z</time>
      </trkpt>
      <trkpt lat="43.39372" lon="6.1038">
        <ele>269.60000610352</ele>
        <time>2012-11-24T16:12:11Z</time>
      </trkpt>
      <trkpt lat="43.39386" lon="6.10362">
        <ele>269.20001220703</ele>
        <time>2012-11-24T16:12:15Z</time>
      </trkpt>
      <trkpt lat="43.39416" lon="6.10311">
        <ele>269.20001220703</ele>
        <time>2012-11-24T16:12:27Z</time>
      </trkpt>
      <trkpt lat="43.39447" lon="6.10281">
        <ele>268.39999389648</ele>
        <time>2012-11-24T16:12:36Z</time>
      </trkpt>
      <trkpt lat="43.39473" lon="6.10257">
        <ele>266.60000610352</ele>
        <time>2012-11-24T16:12:43Z</time>
      </trkpt>
      <trkpt lat="43.39484" lon="6.10242">
        <ele>265.39999389648</ele>
        <time>2012-11-24T16:12:46Z</time>
      </trkpt>
      <trkpt lat="43.39492" lon="6.10223">
        <ele>265</ele>
        <time>2012-11-24T16:12:49Z</time>
      </trkpt>
      <trkpt lat="43.39523" lon="6.10116">
        <ele>261.60000610352</ele>
        <time>2012-11-24T16:13:05Z</time>
      </trkpt>
      <trkpt lat="43.39528" lon="6.10105">
        <ele>260.79998779297</ele>
        <time>2012-11-24T16:13:07Z</time>
      </trkpt>
      <trkpt lat="43.3954" lon="6.10083">
        <ele>260.79998779297</ele>
        <time>2012-11-24T16:13:11Z</time>
      </trkpt>
      <trkpt lat="43.39553" lon="6.10037">
        <ele>258.79998779297</ele>
        <time>2012-11-24T16:13:18Z</time>
      </trkpt>
      <trkpt lat="43.39556" lon="6.10015">
        <ele>258.79998779297</ele>
        <time>2012-11-24T16:13:22Z</time>
      </trkpt>
      <trkpt lat="43.39551" lon="6.10002">
        <ele>258.79998779297</ele>
        <time>2012-11-24T16:13:26Z</time>
      </trkpt>
      <trkpt lat="43.39552" lon="6.0999">
        <ele>258.79998779297</ele>
        <time>2012-11-24T16:13:31Z</time>
      </trkpt>
      <trkpt lat="43.39552" lon="6.09946">
        <ele>258.79998779297</ele>
        <time>2012-11-24T16:13:42Z</time>
      </trkpt>
      <trkpt lat="43.39548" lon="6.09933">
        <ele>258.79998779297</ele>
        <time>2012-11-24T16:13:46Z</time>
      </trkpt>
      <trkpt lat="43.39542" lon="6.09918">
        <ele>260.60000610352</ele>
        <time>2012-11-24T16:13:52Z</time>
      </trkpt>
      <trkpt lat="43.39543" lon="6.09906">
        <ele>261</ele>
        <time>2012-11-24T16:13:56Z</time>
      </trkpt>
      <trkpt lat="43.39555" lon="6.09881">
        <ele>262.60000610352</ele>
        <time>2012-11-24T16:14:05Z</time>
      </trkpt>
      <trkpt lat="43.39562" lon="6.09828">
        <ele>263</ele>
        <time>2012-11-24T16:14:16Z</time>
      </trkpt>
      <trkpt lat="43.39566" lon="6.09794">
        <ele>263</ele>
        <time>2012-11-24T16:14:23Z</time>
      </trkpt>
      <trkpt lat="43.3961" lon="6.09613">
        <ele>263</ele>
        <time>2012-11-24T16:14:58Z</time>
      </trkpt>
      <trkpt lat="43.39621" lon="6.09573">
        <ele>263</ele>
        <time>2012-11-24T16:15:06Z</time>
      </trkpt>
      <trkpt lat="43.39623" lon="6.09563">
        <ele>263</ele>
        <time>2012-11-24T16:15:08Z</time>
      </trkpt>
      <trkpt lat="43.39632" lon="6.09541">
        <ele>262.60000610352</ele>
        <time>2012-11-24T16:15:12Z</time>
      </trkpt>
      <trkpt lat="43.39638" lon="6.09536">
        <ele>261.79998779297</ele>
        <time>2012-11-24T16:15:14Z</time>
      </trkpt>
      <trkpt lat="43.39655" lon="6.09515">
        <ele>259.60000610352</ele>
        <time>2012-11-24T16:15:20Z</time>
      </trkpt>
      <trkpt lat="43.39684" lon="6.09435">
        <ele>252.60000610352</ele>
        <time>2012-11-24T16:15:33Z</time>
      </trkpt>
      <trkpt lat="43.39697" lon="6.09422">
        <ele>251</ele>
        <time>2012-11-24T16:15:36Z</time>
      </trkpt>
      <trkpt lat="43.39727" lon="6.094">
        <ele>247.80000305176</ele>
        <time>2012-11-24T16:15:42Z</time>
      </trkpt>
      <trkpt lat="43.3975" lon="6.09361">
        <ele>246.80000305176</ele>
        <time>2012-11-24T16:15:50Z</time>
      </trkpt>
      <trkpt lat="43.3977" lon="6.09318">
        <ele>246.39999389648</ele>
        <time>2012-11-24T16:15:58Z</time>
      </trkpt>
      <trkpt lat="43.3978" lon="6.09296">
        <ele>244.80000305176</ele>
        <time>2012-11-24T16:16:02Z</time>
      </trkpt>
      <trkpt lat="43.39797" lon="6.09217">
        <ele>244.80000305176</ele>
        <time>2012-11-24T16:16:15Z</time>
      </trkpt>
      <trkpt lat="43.39798" lon="6.09136">
        <ele>246.39999389648</ele>
        <time>2012-11-24T16:16:31Z</time>
      </trkpt>
      <trkpt lat="43.39803" lon="6.09113">
        <ele>246.80000305176</ele>
        <time>2012-11-24T16:16:36Z</time>
      </trkpt>
      <trkpt lat="43.3981" lon="6.09089">
        <ele>246.80000305176</ele>
        <time>2012-11-24T16:16:42Z</time>
      </trkpt>
      <trkpt lat="43.39819" lon="6.09065">
        <ele>246.80000305176</ele>
        <time>2012-11-24T16:16:48Z</time>
      </trkpt>
      <trkpt lat="43.39827" lon="6.0905">
        <ele>246.80000305176</ele>
        <time>2012-11-24T16:16:51Z</time>
      </trkpt>
      <trkpt lat="43.39852" lon="6.09024">
        <ele>246.80000305176</ele>
        <time>2012-11-24T16:16:57Z</time>
      </trkpt>
      <trkpt lat="43.39872" lon="6.08999">
        <ele>246</ele>
        <time>2012-11-24T16:17:02Z</time>
      </trkpt>
      <trkpt lat="43.39882" lon="6.08992">
        <ele>245.19999694824</ele>
        <time>2012-11-24T16:17:04Z</time>
      </trkpt>
      <trkpt lat="43.39898" lon="6.08988">
        <ele>244.80000305176</ele>
        <time>2012-11-24T16:17:07Z</time>
      </trkpt>
      <trkpt lat="43.39935" lon="6.08988">
        <ele>243.60000610352</ele>
        <time>2012-11-24T16:17:14Z</time>
      </trkpt>
      <trkpt lat="43.3997" lon="6.08983">
        <ele>241</ele>
        <time>2012-11-24T16:17:20Z</time>
      </trkpt>
      <trkpt lat="43.40007" lon="6.08971">
        <ele>240.39999389648</ele>
        <time>2012-11-24T16:17:26Z</time>
      </trkpt>
      <trkpt lat="43.40017" lon="6.08963">
        <ele>240.39999389648</ele>
        <time>2012-11-24T16:17:28Z</time>
      </trkpt>
      <trkpt lat="43.40022" lon="6.08959">
        <ele>240.39999389648</ele>
        <time>2012-11-24T16:17:29Z</time>
      </trkpt>
      <trkpt lat="43.40049" lon="6.08859">
        <ele>240.39999389648</ele>
        <time>2012-11-24T16:17:46Z</time>
      </trkpt>
      <trkpt lat="43.40095" lon="6.08729">
        <ele>240.39999389648</ele>
        <time>2012-11-24T16:18:09Z</time>
      </trkpt>
      <trkpt lat="43.401" lon="6.08685">
        <ele>240</ele>
        <time>2012-11-24T16:18:15Z</time>
      </trkpt>
      <trkpt lat="43.40097" lon="6.08639">
        <ele>238.39999389648</ele>
        <time>2012-11-24T16:18:21Z</time>
      </trkpt>
      <trkpt lat="43.40108" lon="6.08622">
        <ele>237.19999694824</ele>
        <time>2012-11-24T16:18:24Z</time>
      </trkpt>
      <trkpt lat="43.40137" lon="6.08597">
        <ele>236.19999694824</ele>
        <time>2012-11-24T16:18:30Z</time>
      </trkpt>
      <trkpt lat="43.4016" lon="6.08583">
        <ele>236.19999694824</ele>
        <time>2012-11-24T16:18:35Z</time>
      </trkpt>
      <trkpt lat="43.40165" lon="6.08574">
        <ele>236.19999694824</ele>
        <time>2012-11-24T16:18:37Z</time>
      </trkpt>
      <trkpt lat="43.40165" lon="6.08531">
        <ele>234.19999694824</ele>
        <time>2012-11-24T16:18:46Z</time>
      </trkpt>
      <trkpt lat="43.40165" lon="6.08514">
        <ele>234.19999694824</ele>
        <time>2012-11-24T16:18:49Z</time>
      </trkpt>
      <trkpt lat="43.40174" lon="6.08435">
        <ele>234.60000610352</ele>
        <time>2012-11-24T16:19:01Z</time>
      </trkpt>
      <trkpt lat="43.40179" lon="6.08299">
        <ele>236.19999694824</ele>
        <time>2012-11-24T16:19:19Z</time>
      </trkpt>
      <trkpt lat="43.40183" lon="6.0827">
        <ele>236.19999694824</ele>
        <time>2012-11-24T16:19:24Z</time>
      </trkpt>
      <trkpt lat="43.40182" lon="6.08262">
        <ele>236.19999694824</ele>
        <time>2012-11-24T16:19:29Z</time>
      </trkpt>
      <trkpt lat="43.40179" lon="6.08239">
        <ele>236.19999694824</ele>
        <time>2012-11-24T16:19:41Z</time>
      </trkpt>
      <trkpt lat="43.40196" lon="6.08165">
        <ele>234.19999694824</ele>
        <time>2012-11-24T16:19:54Z</time>
      </trkpt>
      <trkpt lat="43.40198" lon="6.08136">
        <ele>234.19999694824</ele>
        <time>2012-11-24T16:19:58Z</time>
      </trkpt>
      <trkpt lat="43.40192" lon="6.08091">
        <ele>232.19999694824</ele>
        <time>2012-11-24T16:20:07Z</time>
      </trkpt>
      <trkpt lat="43.40202" lon="6.08064">
        <ele>232.19999694824</ele>
        <time>2012-11-24T16:20:11Z</time>
      </trkpt>
      <trkpt lat="43.4026" lon="6.07986">
        <ele>230.19999694824</ele>
        <time>2012-11-24T16:20:24Z</time>
      </trkpt>
      <trkpt lat="43.40281" lon="6.07946">
        <ele>228</ele>
        <time>2012-11-24T16:20:30Z</time>
      </trkpt>
      <trkpt lat="43.40289" lon="6.07924">
        <ele>228</ele>
        <time>2012-11-24T16:20:33Z</time>
      </trkpt>
      <trkpt lat="43.40295" lon="6.07883">
        <ele>226.39999389648</ele>
        <time>2012-11-24T16:20:38Z</time>
      </trkpt>
      <trkpt lat="43.40309" lon="6.07763">
        <ele>223.80000305176</ele>
        <time>2012-11-24T16:20:53Z</time>
      </trkpt>
      <trkpt lat="43.40313" lon="6.07731">
        <ele>223.80000305176</ele>
        <time>2012-11-24T16:20:57Z</time>
      </trkpt>
      <trkpt lat="43.4033" lon="6.07691">
        <ele>223.39999389648</ele>
        <time>2012-11-24T16:21:02Z</time>
      </trkpt>
      <trkpt lat="43.40349" lon="6.07671">
        <ele>221.60000610352</ele>
        <time>2012-11-24T16:21:06Z</time>
      </trkpt>
      <trkpt lat="43.40366" lon="6.07651">
        <ele>221.60000610352</ele>
        <time>2012-11-24T16:21:10Z</time>
      </trkpt>
      <trkpt lat="43.40368" lon="6.07643">
        <ele>221.60000610352</ele>
        <time>2012-11-24T16:21:11Z</time>
      </trkpt>
      <trkpt lat="43.40373" lon="6.076">
        <ele>221.60000610352</ele>
        <time>2012-11-24T16:21:17Z</time>
      </trkpt>
      <trkpt lat="43.40375" lon="6.07519">
        <ele>221.60000610352</ele>
        <time>2012-11-24T16:21:29Z</time>
      </trkpt>
      <trkpt lat="43.4039" lon="6.07421">
        <ele>221.60000610352</ele>
        <time>2012-11-24T16:21:43Z</time>
      </trkpt>
      <trkpt lat="43.4039" lon="6.07371">
        <ele>221.60000610352</ele>
        <time>2012-11-24T16:21:50Z</time>
      </trkpt>
      <trkpt lat="43.4038" lon="6.07299">
        <ele>221.60000610352</ele>
        <time>2012-11-24T16:22:01Z</time>
      </trkpt>
      <trkpt lat="43.4039" lon="6.0727">
        <ele>219.60000610352</ele>
        <time>2012-11-24T16:22:07Z</time>
      </trkpt>
      <trkpt lat="43.40385" lon="6.07236">
        <ele>219.60000610352</ele>
        <time>2012-11-24T16:22:12Z</time>
      </trkpt>
      <trkpt lat="43.4039" lon="6.07169">
        <ele>219.60000610352</ele>
        <time>2012-11-24T16:22:22Z</time>
      </trkpt>
      <trkpt lat="43.40407" lon="6.07052">
        <ele>219.60000610352</ele>
        <time>2012-11-24T16:22:44Z</time>
      </trkpt>
      <trkpt lat="43.40424" lon="6.06953">
        <ele>221.60000610352</ele>
        <time>2012-11-24T16:23:07Z</time>
      </trkpt>
      <trkpt lat="43.40434" lon="6.06928">
        <ele>221.60000610352</ele>
        <time>2012-11-24T16:23:13Z</time>
      </trkpt>
      <trkpt lat="43.40448" lon="6.06895">
        <ele>221.60000610352</ele>
        <time>2012-11-24T16:23:25Z</time>
      </trkpt>
      <trkpt lat="43.40456" lon="6.06865">
        <ele>221.60000610352</ele>
        <time>2012-11-24T16:23:35Z</time>
      </trkpt>
      <trkpt lat="43.40462" lon="6.06828">
        <ele>221.60000610352</ele>
        <time>2012-11-24T16:23:43Z</time>
      </trkpt>
      <trkpt lat="43.40461" lon="6.06749">
        <ele>221.60000610352</ele>
        <time>2012-11-24T16:23:57Z</time>
      </trkpt>
      <trkpt lat="43.40464" lon="6.06703">
        <ele>221.60000610352</ele>
        <time>2012-11-24T16:24:04Z</time>
      </trkpt>
      <trkpt lat="43.40487" lon="6.06619">
        <ele>221.60000610352</ele>
        <time>2012-11-24T16:24:18Z</time>
      </trkpt>
      <trkpt lat="43.40504" lon="6.06511">
        <ele>221.60000610352</ele>
        <time>2012-11-24T16:24:51Z</time>
      </trkpt>
      <trkpt lat="43.40518" lon="6.06516">
        <ele>221.60000610352</ele>
        <time>2012-11-24T16:25:04Z</time>
      </trkpt>
      <trkpt lat="43.40598" lon="6.06534">
        <ele>219.60000610352</ele>
        <time>2012-11-24T16:25:20Z</time>
      </trkpt>
      <trkpt lat="43.4061" lon="6.06537">
        <ele>218.39999389648</ele>
        <time>2012-11-24T16:25:26Z</time>
      </trkpt>
      <trkpt lat="43.40617" lon="6.06531">
        <ele>217.39999389648</ele>
        <time>2012-11-24T16:25:28Z</time>
      </trkpt>
      <trkpt lat="43.40626" lon="6.0651">
        <ele>217.39999389648</ele>
        <time>2012-11-24T16:25:32Z</time>
      </trkpt>
      <trkpt lat="43.40634" lon="6.06498">
        <ele>217.39999389648</ele>
        <time>2012-11-24T16:25:34Z</time>
      </trkpt>
      <trkpt lat="43.40648" lon="6.0648">
        <ele>216.60000610352</ele>
        <time>2012-11-24T16:25:37Z</time>
      </trkpt>
      <trkpt lat="43.40671" lon="6.06455">
        <ele>214.39999389648</ele>
        <time>2012-11-24T16:25:41Z</time>
      </trkpt>
      <trkpt lat="43.40691" lon="6.06439">
        <ele>213</ele>
        <time>2012-11-24T16:25:44Z</time>
      </trkpt>
      <trkpt lat="43.40702" lon="6.06434">
        <ele>212.19999694824</ele>
        <time>2012-11-24T16:25:46Z</time>
      </trkpt>
      <trkpt lat="43.40706" lon="6.06433">
        <ele>211.60000610352</ele>
        <time>2012-11-24T16:25:47Z</time>
      </trkpt>
      <trkpt lat="43.40725" lon="6.0643">
        <ele>210.80000305176</ele>
        <time>2012-11-24T16:25:58Z</time>
      </trkpt>
      <trkpt lat="43.40738" lon="6.06431">
        <ele>210</ele>
        <time>2012-11-24T16:26:01Z</time>
      </trkpt>
      <trkpt lat="43.40792" lon="6.06416">
        <ele>208.60000610352</ele>
        <time>2012-11-24T16:26:12Z</time>
      </trkpt>
      <trkpt lat="43.40815" lon="6.06423">
        <ele>207</ele>
        <time>2012-11-24T16:26:16Z</time>
      </trkpt>
      <trkpt lat="43.40826" lon="6.06422">
        <ele>206.60000610352</ele>
        <time>2012-11-24T16:26:18Z</time>
      </trkpt>
      <trkpt lat="43.40837" lon="6.06419">
        <ele>206.60000610352</ele>
        <time>2012-11-24T16:26:20Z</time>
      </trkpt>
      <trkpt lat="43.40867" lon="6.06397">
        <ele>206.60000610352</ele>
        <time>2012-11-24T16:26:26Z</time>
      </trkpt>
      <trkpt lat="43.40889" lon="6.06372">
        <ele>206.60000610352</ele>
        <time>2012-11-24T16:26:31Z</time>
      </trkpt>
      <trkpt lat="43.40932" lon="6.06316">
        <ele>208.80000305176</ele>
        <time>2012-11-24T16:26:43Z</time>
      </trkpt>
      <trkpt lat="43.40945" lon="6.06303">
        <ele>208.80000305176</ele>
        <time>2012-11-24T16:26:47Z</time>
      </trkpt>
      <trkpt lat="43.40955" lon="6.06298">
        <ele>208.80000305176</ele>
        <time>2012-11-24T16:26:50Z</time>
      </trkpt>
      <trkpt lat="43.40959" lon="6.063">
        <ele>208.80000305176</ele>
        <time>2012-11-24T16:26:51Z</time>
      </trkpt>
      <trkpt lat="43.40965" lon="6.06309">
        <ele>208.80000305176</ele>
        <time>2012-11-24T16:26:53Z</time>
      </trkpt>
      <trkpt lat="43.4099" lon="6.06387">
        <ele>208.80000305176</ele>
        <time>2012-11-24T16:27:05Z</time>
      </trkpt>
      <trkpt lat="43.41011" lon="6.0642">
        <ele>208.80000305176</ele>
        <time>2012-11-24T16:27:11Z</time>
      </trkpt>
      <trkpt lat="43.41113" lon="6.0655">
        <ele>208.80000305176</ele>
        <time>2012-11-24T16:27:40Z</time>
      </trkpt>
      <trkpt lat="43.41166" lon="6.06607">
        <ele>208.80000305176</ele>
        <time>2012-11-24T16:27:55Z</time>
      </trkpt>
      <trkpt lat="43.41233" lon="6.06688">
        <ele>208.80000305176</ele>
        <time>2012-11-24T16:28:13Z</time>
      </trkpt>
      <trkpt lat="43.41259" lon="6.06724">
        <ele>208.80000305176</ele>
        <time>2012-11-24T16:28:21Z</time>
      </trkpt>
      <trkpt lat="43.41289" lon="6.06778">
        <ele>209.19999694824</ele>
        <time>2012-11-24T16:28:32Z</time>
      </trkpt>
      <trkpt lat="43.41322" lon="6.06807">
        <ele>210.80000305176</ele>
        <time>2012-11-24T16:28:41Z</time>
      </trkpt>
      <trkpt lat="43.4135" lon="6.06822">
        <ele>210.80000305176</ele>
        <time>2012-11-24T16:28:48Z</time>
      </trkpt>
      <trkpt lat="43.41379" lon="6.06837">
        <ele>210.80000305176</ele>
        <time>2012-11-24T16:28:55Z</time>
      </trkpt>
      <trkpt lat="43.41407" lon="6.06863">
        <ele>210.80000305176</ele>
        <time>2012-11-24T16:29:02Z</time>
      </trkpt>
      <trkpt lat="43.41422" lon="6.06904">
        <ele>210.80000305176</ele>
        <time>2012-11-24T16:29:08Z</time>
      </trkpt>
      <trkpt lat="43.4143" lon="6.06914">
        <ele>210.80000305176</ele>
        <time>2012-11-24T16:29:10Z</time>
      </trkpt>
      <trkpt lat="43.4144" lon="6.0692">
        <ele>210.80000305176</ele>
        <time>2012-11-24T16:29:12Z</time>
      </trkpt>
      <trkpt lat="43.41446" lon="6.06919">
        <ele>210.80000305176</ele>
        <time>2012-11-24T16:29:13Z</time>
      </trkpt>
      <trkpt lat="43.41478" lon="6.06895">
        <ele>210.80000305176</ele>
        <time>2012-11-24T16:29:20Z</time>
      </trkpt>
      <trkpt lat="43.41483" lon="6.06895">
        <ele>210.80000305176</ele>
        <time>2012-11-24T16:29:21Z</time>
      </trkpt>
      <trkpt lat="43.41503" lon="6.06899">
        <ele>210.80000305176</ele>
        <time>2012-11-24T16:29:25Z</time>
      </trkpt>
      <trkpt lat="43.41552" lon="6.06921">
        <ele>212.39999389648</ele>
        <time>2012-11-24T16:29:36Z</time>
      </trkpt>
      <trkpt lat="43.41685" lon="6.06984">
        <ele>217.39999389648</ele>
        <time>2012-11-24T16:30:16Z</time>
      </trkpt>
      <trkpt lat="43.41689" lon="6.06989">
        <ele>218.39999389648</ele>
        <time>2012-11-24T16:30:18Z</time>
      </trkpt>
      <trkpt lat="43.41697" lon="6.07018">
        <ele>219.19999694824</ele>
        <time>2012-11-24T16:30:25Z</time>
      </trkpt>
      <trkpt lat="43.41711" lon="6.07069">
        <ele>219.19999694824</ele>
        <time>2012-11-24T16:30:35Z</time>
      </trkpt>
      <trkpt lat="43.41726" lon="6.0709">
        <ele>219.19999694824</ele>
        <time>2012-11-24T16:30:40Z</time>
      </trkpt>
      <trkpt lat="43.41795" lon="6.07102">
        <ele>219.19999694824</ele>
        <time>2012-11-24T16:30:57Z</time>
      </trkpt>
      <trkpt lat="43.41861" lon="6.07144">
        <ele>219.19999694824</ele>
        <time>2012-11-24T16:31:16Z</time>
      </trkpt>
      <trkpt lat="43.41882" lon="6.07149">
        <ele>219.19999694824</ele>
        <time>2012-11-24T16:31:22Z</time>
      </trkpt>
      <trkpt lat="43.41902" lon="6.07146">
        <ele>219.19999694824</ele>
        <time>2012-11-24T16:31:28Z</time>
      </trkpt>
      <trkpt lat="43.41904" lon="6.07148">
        <ele>219.60000610352</ele>
        <time>2012-11-24T16:31:29Z</time>
      </trkpt>
      <trkpt lat="43.41912" lon="6.07162">
        <ele>221.39999389648</ele>
        <time>2012-11-24T16:31:33Z</time>
      </trkpt>
      <trkpt lat="43.41914" lon="6.07176">
        <ele>222.39999389648</ele>
        <time>2012-11-24T16:31:37Z</time>
      </trkpt>
      <trkpt lat="43.41902" lon="6.07195">
        <ele>225.39999389648</ele>
        <time>2012-11-24T16:31:47Z</time>
      </trkpt>
      <trkpt lat="43.41893" lon="6.07203">
        <ele>225.80000305176</ele>
        <time>2012-11-24T16:31:51Z</time>
      </trkpt>
      <trkpt lat="43.41889" lon="6.07205">
        <ele>225.80000305176</ele>
        <time>2012-11-24T16:31:52Z</time>
      </trkpt>
      <trkpt lat="43.41869" lon="6.07213">
        <ele>225.80000305176</ele>
        <time>2012-11-24T16:31:57Z</time>
      </trkpt>
      <trkpt lat="43.41864" lon="6.07235">
        <ele>225.80000305176</ele>
        <time>2012-11-24T16:32:01Z</time>
      </trkpt>
      <trkpt lat="43.41864" lon="6.07265">
        <ele>225.80000305176</ele>
        <time>2012-11-24T16:32:14Z</time>
      </trkpt>
    </trkseg>
  </trk>
</gpx>